<?xml version="1.0" encoding="UTF-8" standalone="no" ?>
<gpx xmlns="http://www.topografix.com/GPX/1/1" xmlns:xsi="http://www.w3.org/2001/XMLSchema-instance" xsi:schemaLocation="http://www.topografix.com/GPX/1/1 http://www.topografix.com/GPX/1/1/gpx.xsd" version="1.1" creator="VisuGPX - https://www.visugpx.com">
  <metadata>
    <name>TAHITI - VTT - Huahine - Tour Huahine Iti</name>
    <desc><![CDATA[Découverte de Huahine iti]]></desc>
  </metadata>
  <wpt lat="-16.82033" lon="-150.98338">
    <ele>-4.44043</ele>
    <name><![CDATA[Hiva Plage]]></name>
    <desc><![CDATA[11-MAI-12 20:27:42]]></desc>
  </wpt>
  <trk>
    <name><![CDATA[ACTIVE LOG 006]]></name>
    <trkseg>
      <trkpt lat="-16.78832" lon="-150.96023">
        <ele>43.877319</ele>
        <time>2012-05-11T19:35:34Z</time>
      </trkpt>
      <trkpt lat="-16.78832" lon="-150.96023">
        <ele>43.396606</ele>
        <time>2012-05-11T19:35:35Z</time>
      </trkpt>
      <trkpt lat="-16.78832" lon="-150.96022">
        <ele>43.877319</ele>
        <time>2012-05-11T19:35:36Z</time>
      </trkpt>
      <trkpt lat="-16.78833" lon="-150.96022">
        <ele>47.722534</ele>
        <time>2012-05-11T19:35:46Z</time>
      </trkpt>
      <trkpt lat="-16.78833" lon="-150.96022">
        <ele>48.203369</ele>
        <time>2012-05-11T19:35:48Z</time>
      </trkpt>
      <trkpt lat="-16.78833" lon="-150.96021">
        <ele>52.048584</ele>
        <time>2012-05-11T19:36:23Z</time>
      </trkpt>
      <trkpt lat="-16.78832" lon="-150.96022">
        <ele>52.048584</ele>
        <time>2012-05-11T19:36:35Z</time>
      </trkpt>
      <trkpt lat="-16.78837" lon="-150.96026">
        <ele>51.087158</ele>
        <time>2012-05-11T19:36:57Z</time>
      </trkpt>
      <trkpt lat="-16.78836" lon="-150.96026">
        <ele>49.164551</ele>
        <time>2012-05-11T19:36:59Z</time>
      </trkpt>
      <trkpt lat="-16.78836" lon="-150.96026">
        <ele>50.606567</ele>
        <time>2012-05-11T19:37:01Z</time>
      </trkpt>
      <trkpt lat="-16.78835" lon="-150.96026">
        <ele>52.529175</ele>
        <time>2012-05-11T19:37:04Z</time>
      </trkpt>
      <trkpt lat="-16.78815" lon="-150.9603">
        <ele>53.009766</ele>
        <time>2012-05-11T19:37:17Z</time>
      </trkpt>
      <trkpt lat="-16.78779" lon="-150.96035">
        <ele>52.529175</ele>
        <time>2012-05-11T19:37:31Z</time>
      </trkpt>
      <trkpt lat="-16.78754" lon="-150.96025">
        <ele>51.567871</ele>
        <time>2012-05-11T19:37:38Z</time>
      </trkpt>
      <trkpt lat="-16.78746" lon="-150.95994">
        <ele>51.567871</ele>
        <time>2012-05-11T19:37:45Z</time>
      </trkpt>
      <trkpt lat="-16.78755" lon="-150.95946">
        <ele>49.164551</ele>
        <time>2012-05-11T19:37:53Z</time>
      </trkpt>
      <trkpt lat="-16.78736" lon="-150.95911">
        <ele>46.28064</ele>
        <time>2012-05-11T19:38:01Z</time>
      </trkpt>
      <trkpt lat="-16.78714" lon="-150.95908">
        <ele>44.838623</ele>
        <time>2012-05-11T19:38:04Z</time>
      </trkpt>
      <trkpt lat="-16.78642" lon="-150.95911">
        <ele>41.954712</ele>
        <time>2012-05-11T19:38:15Z</time>
      </trkpt>
      <trkpt lat="-16.78619" lon="-150.95912">
        <ele>40.993408</ele>
        <time>2012-05-11T19:38:19Z</time>
      </trkpt>
      <trkpt lat="-16.786" lon="-150.95927">
        <ele>38.590088</ele>
        <time>2012-05-11T19:38:25Z</time>
      </trkpt>
      <trkpt lat="-16.78594" lon="-150.95942">
        <ele>36.186768</ele>
        <time>2012-05-11T19:38:29Z</time>
      </trkpt>
      <trkpt lat="-16.7859" lon="-150.95952">
        <ele>34.744873</ele>
        <time>2012-05-11T19:38:31Z</time>
      </trkpt>
      <trkpt lat="-16.78564" lon="-150.95968">
        <ele>31.380127</ele>
        <time>2012-05-11T19:38:36Z</time>
      </trkpt>
      <trkpt lat="-16.78549" lon="-150.95956">
        <ele>28.976929</ele>
        <time>2012-05-11T19:38:39Z</time>
      </trkpt>
      <trkpt lat="-16.78538" lon="-150.95941">
        <ele>28.976929</ele>
        <time>2012-05-11T19:38:42Z</time>
      </trkpt>
      <trkpt lat="-16.78488" lon="-150.95904">
        <ele>27.054321</ele>
        <time>2012-05-11T19:38:55Z</time>
      </trkpt>
      <trkpt lat="-16.78442" lon="-150.9588">
        <ele>27.534912</ele>
        <time>2012-05-11T19:39:12Z</time>
      </trkpt>
      <trkpt lat="-16.78427" lon="-150.9587">
        <ele>28.015503</ele>
        <time>2012-05-11T19:39:29Z</time>
      </trkpt>
      <trkpt lat="-16.78427" lon="-150.9587">
        <ele>27.534912</ele>
        <time>2012-05-11T19:40:20Z</time>
      </trkpt>
      <trkpt lat="-16.78425" lon="-150.9587">
        <ele>27.534912</ele>
        <time>2012-05-11T19:41:13Z</time>
      </trkpt>
      <trkpt lat="-16.78416" lon="-150.95866">
        <ele>28.015503</ele>
        <time>2012-05-11T19:41:19Z</time>
      </trkpt>
      <trkpt lat="-16.78358" lon="-150.95837">
        <ele>26.092896</ele>
        <time>2012-05-11T19:41:41Z</time>
      </trkpt>
      <trkpt lat="-16.78287" lon="-150.95842">
        <ele>25.612305</ele>
        <time>2012-05-11T19:42:01Z</time>
      </trkpt>
      <trkpt lat="-16.782" lon="-150.95846">
        <ele>25.612305</ele>
        <time>2012-05-11T19:42:24Z</time>
      </trkpt>
      <trkpt lat="-16.78116" lon="-150.9585">
        <ele>26.573608</ele>
        <time>2012-05-11T19:42:44Z</time>
      </trkpt>
      <trkpt lat="-16.78019" lon="-150.9585">
        <ele>27.054321</ele>
        <time>2012-05-11T19:43:06Z</time>
      </trkpt>
      <trkpt lat="-16.77931" lon="-150.95866">
        <ele>26.573608</ele>
        <time>2012-05-11T19:43:25Z</time>
      </trkpt>
      <trkpt lat="-16.77908" lon="-150.95872">
        <ele>26.573608</ele>
        <time>2012-05-11T19:43:30Z</time>
      </trkpt>
      <trkpt lat="-16.77835" lon="-150.9587">
        <ele>26.573608</ele>
        <time>2012-05-11T19:43:46Z</time>
      </trkpt>
      <trkpt lat="-16.77785" lon="-150.95856">
        <ele>25.612305</ele>
        <time>2012-05-11T19:43:59Z</time>
      </trkpt>
      <trkpt lat="-16.77728" lon="-150.95833">
        <ele>26.092896</ele>
        <time>2012-05-11T19:44:14Z</time>
      </trkpt>
      <trkpt lat="-16.77666" lon="-150.9581">
        <ele>26.092896</ele>
        <time>2012-05-11T19:44:30Z</time>
      </trkpt>
      <trkpt lat="-16.7758" lon="-150.95816">
        <ele>26.573608</ele>
        <time>2012-05-11T19:44:49Z</time>
      </trkpt>
      <trkpt lat="-16.7749" lon="-150.95825">
        <ele>27.054321</ele>
        <time>2012-05-11T19:45:08Z</time>
      </trkpt>
      <trkpt lat="-16.77385" lon="-150.95843">
        <ele>26.092896</ele>
        <time>2012-05-11T19:45:30Z</time>
      </trkpt>
      <trkpt lat="-16.77318" lon="-150.95896">
        <ele>27.054321</ele>
        <time>2012-05-11T19:45:47Z</time>
      </trkpt>
      <trkpt lat="-16.77249" lon="-150.95955">
        <ele>28.015503</ele>
        <time>2012-05-11T19:46:05Z</time>
      </trkpt>
      <trkpt lat="-16.77167" lon="-150.96018">
        <ele>28.015503</ele>
        <time>2012-05-11T19:46:25Z</time>
      </trkpt>
      <trkpt lat="-16.77137" lon="-150.96039">
        <ele>28.015503</ele>
        <time>2012-05-11T19:46:32Z</time>
      </trkpt>
      <trkpt lat="-16.77065" lon="-150.96092">
        <ele>28.015503</ele>
        <time>2012-05-11T19:46:49Z</time>
      </trkpt>
      <trkpt lat="-16.76976" lon="-150.96145">
        <ele>27.534912</ele>
        <time>2012-05-11T19:47:09Z</time>
      </trkpt>
      <trkpt lat="-16.7688" lon="-150.96186">
        <ele>27.534912</ele>
        <time>2012-05-11T19:47:31Z</time>
      </trkpt>
      <trkpt lat="-16.7682" lon="-150.96212">
        <ele>27.054321</ele>
        <time>2012-05-11T19:47:45Z</time>
      </trkpt>
      <trkpt lat="-16.76721" lon="-150.96261">
        <ele>27.054321</ele>
        <time>2012-05-11T19:48:07Z</time>
      </trkpt>
      <trkpt lat="-16.76632" lon="-150.96298">
        <ele>26.573608</ele>
        <time>2012-05-11T19:48:26Z</time>
      </trkpt>
      <trkpt lat="-16.76579" lon="-150.96326">
        <ele>26.573608</ele>
        <time>2012-05-11T19:48:38Z</time>
      </trkpt>
      <trkpt lat="-16.76501" lon="-150.96369">
        <ele>27.054321</ele>
        <time>2012-05-11T19:48:56Z</time>
      </trkpt>
      <trkpt lat="-16.76406" lon="-150.96427">
        <ele>26.573608</ele>
        <time>2012-05-11T19:49:18Z</time>
      </trkpt>
      <trkpt lat="-16.76335" lon="-150.9647">
        <ele>26.573608</ele>
        <time>2012-05-11T19:49:34Z</time>
      </trkpt>
      <trkpt lat="-16.76249" lon="-150.96516">
        <ele>26.092896</ele>
        <time>2012-05-11T19:49:53Z</time>
      </trkpt>
      <trkpt lat="-16.76233" lon="-150.96527">
        <ele>26.092896</ele>
        <time>2012-05-11T19:49:57Z</time>
      </trkpt>
      <trkpt lat="-16.76197" lon="-150.96565">
        <ele>27.054321</ele>
        <time>2012-05-11T19:50:08Z</time>
      </trkpt>
      <trkpt lat="-16.76186" lon="-150.96574">
        <ele>26.573608</ele>
        <time>2012-05-11T19:50:11Z</time>
      </trkpt>
      <trkpt lat="-16.76117" lon="-150.96666">
        <ele>27.054321</ele>
        <time>2012-05-11T19:50:32Z</time>
      </trkpt>
      <trkpt lat="-16.76075" lon="-150.96768">
        <ele>26.573608</ele>
        <time>2012-05-11T19:50:52Z</time>
      </trkpt>
      <trkpt lat="-16.76036" lon="-150.96848">
        <ele>25.612305</ele>
        <time>2012-05-11T19:51:10Z</time>
      </trkpt>
      <trkpt lat="-16.75974" lon="-150.96932">
        <ele>24.651001</ele>
        <time>2012-05-11T19:51:30Z</time>
      </trkpt>
      <trkpt lat="-16.75894" lon="-150.96971">
        <ele>25.612305</ele>
        <time>2012-05-11T19:51:47Z</time>
      </trkpt>
      <trkpt lat="-16.75808" lon="-150.97003">
        <ele>26.092896</ele>
        <time>2012-05-11T19:52:05Z</time>
      </trkpt>
      <trkpt lat="-16.75785" lon="-150.97017">
        <ele>26.092896</ele>
        <time>2012-05-11T19:52:10Z</time>
      </trkpt>
      <trkpt lat="-16.75766" lon="-150.97066">
        <ele>26.573608</ele>
        <time>2012-05-11T19:52:20Z</time>
      </trkpt>
      <trkpt lat="-16.75766" lon="-150.97083">
        <ele>26.092896</ele>
        <time>2012-05-11T19:52:23Z</time>
      </trkpt>
      <trkpt lat="-16.75801" lon="-150.97159">
        <ele>26.573608</ele>
        <time>2012-05-11T19:52:38Z</time>
      </trkpt>
      <trkpt lat="-16.75852" lon="-150.97244">
        <ele>26.573608</ele>
        <time>2012-05-11T19:52:56Z</time>
      </trkpt>
      <trkpt lat="-16.75846" lon="-150.97309">
        <ele>26.573608</ele>
        <time>2012-05-11T19:53:08Z</time>
      </trkpt>
      <trkpt lat="-16.75797" lon="-150.97406">
        <ele>25.612305</ele>
        <time>2012-05-11T19:53:29Z</time>
      </trkpt>
      <trkpt lat="-16.75745" lon="-150.9747">
        <ele>25.131714</ele>
        <time>2012-05-11T19:53:46Z</time>
      </trkpt>
      <trkpt lat="-16.75699" lon="-150.97508">
        <ele>24.651001</ele>
        <time>2012-05-11T19:53:59Z</time>
      </trkpt>
      <trkpt lat="-16.75613" lon="-150.9752">
        <ele>23.208984</ele>
        <time>2012-05-11T19:54:17Z</time>
      </trkpt>
      <trkpt lat="-16.75531" lon="-150.97517">
        <ele>24.170288</ele>
        <time>2012-05-11T19:54:34Z</time>
      </trkpt>
      <trkpt lat="-16.7544" lon="-150.97494">
        <ele>26.092896</ele>
        <time>2012-05-11T19:54:55Z</time>
      </trkpt>
      <trkpt lat="-16.75436" lon="-150.97494">
        <ele>26.573608</ele>
        <time>2012-05-11T19:54:56Z</time>
      </trkpt>
      <trkpt lat="-16.75416" lon="-150.97493">
        <ele>29.45752</ele>
        <time>2012-05-11T19:55:02Z</time>
      </trkpt>
      <trkpt lat="-16.75411" lon="-150.97494">
        <ele>30.418823</ele>
        <time>2012-05-11T19:55:04Z</time>
      </trkpt>
      <trkpt lat="-16.75389" lon="-150.9751">
        <ele>28.976929</ele>
        <time>2012-05-11T19:55:15Z</time>
      </trkpt>
      <trkpt lat="-16.75386" lon="-150.97513">
        <ele>28.496216</ele>
        <time>2012-05-11T19:55:16Z</time>
      </trkpt>
      <trkpt lat="-16.75359" lon="-150.97571">
        <ele>25.131714</ele>
        <time>2012-05-11T19:55:25Z</time>
      </trkpt>
      <trkpt lat="-16.75353" lon="-150.97586">
        <ele>26.573608</ele>
        <time>2012-05-11T19:55:27Z</time>
      </trkpt>
      <trkpt lat="-16.75302" lon="-150.97663">
        <ele>26.092896</ele>
        <time>2012-05-11T19:55:42Z</time>
      </trkpt>
      <trkpt lat="-16.75256" lon="-150.97725">
        <ele>27.054321</ele>
        <time>2012-05-11T19:55:59Z</time>
      </trkpt>
      <trkpt lat="-16.75239" lon="-150.97771">
        <ele>26.573608</ele>
        <time>2012-05-11T19:56:13Z</time>
      </trkpt>
      <trkpt lat="-16.75225" lon="-150.97873">
        <ele>27.054321</ele>
        <time>2012-05-11T19:56:32Z</time>
      </trkpt>
      <trkpt lat="-16.75259" lon="-150.97941">
        <ele>28.015503</ele>
        <time>2012-05-11T19:56:46Z</time>
      </trkpt>
      <trkpt lat="-16.75291" lon="-150.97979">
        <ele>26.573608</ele>
        <time>2012-05-11T19:56:55Z</time>
      </trkpt>
      <trkpt lat="-16.75363" lon="-150.98029">
        <ele>27.534912</ele>
        <time>2012-05-11T19:57:10Z</time>
      </trkpt>
      <trkpt lat="-16.75403" lon="-150.98048">
        <ele>30.418823</ele>
        <time>2012-05-11T19:57:18Z</time>
      </trkpt>
      <trkpt lat="-16.75407" lon="-150.98051">
        <ele>28.496216</ele>
        <time>2012-05-11T19:57:19Z</time>
      </trkpt>
      <trkpt lat="-16.75456" lon="-150.98104">
        <ele>29.45752</ele>
        <time>2012-05-11T19:57:36Z</time>
      </trkpt>
      <trkpt lat="-16.75508" lon="-150.98176">
        <ele>30.899536</ele>
        <time>2012-05-11T19:57:57Z</time>
      </trkpt>
      <trkpt lat="-16.75538" lon="-150.98222">
        <ele>29.93811</ele>
        <time>2012-05-11T19:58:09Z</time>
      </trkpt>
      <trkpt lat="-16.75564" lon="-150.98253">
        <ele>29.45752</ele>
        <time>2012-05-11T19:58:17Z</time>
      </trkpt>
      <trkpt lat="-16.75606" lon="-150.98293">
        <ele>30.899536</ele>
        <time>2012-05-11T19:58:29Z</time>
      </trkpt>
      <trkpt lat="-16.75673" lon="-150.98336">
        <ele>28.976929</ele>
        <time>2012-05-11T19:58:46Z</time>
      </trkpt>
      <trkpt lat="-16.75731" lon="-150.98367">
        <ele>28.015503</ele>
        <time>2012-05-11T19:58:58Z</time>
      </trkpt>
      <trkpt lat="-16.75751" lon="-150.98384">
        <ele>28.015503</ele>
        <time>2012-05-11T19:59:03Z</time>
      </trkpt>
      <trkpt lat="-16.75823" lon="-150.98481">
        <ele>25.612305</ele>
        <time>2012-05-11T19:59:26Z</time>
      </trkpt>
      <trkpt lat="-16.75854" lon="-150.98551">
        <ele>27.534912</ele>
        <time>2012-05-11T19:59:40Z</time>
      </trkpt>
      <trkpt lat="-16.75859" lon="-150.98577">
        <ele>24.651001</ele>
        <time>2012-05-11T19:59:45Z</time>
      </trkpt>
      <trkpt lat="-16.75861" lon="-150.98582">
        <ele>24.651001</ele>
        <time>2012-05-11T19:59:46Z</time>
      </trkpt>
      <trkpt lat="-16.75883" lon="-150.98689">
        <ele>25.612305</ele>
        <time>2012-05-11T20:00:07Z</time>
      </trkpt>
      <trkpt lat="-16.75886" lon="-150.98705">
        <ele>26.092896</ele>
        <time>2012-05-11T20:00:10Z</time>
      </trkpt>
      <trkpt lat="-16.75901" lon="-150.9873">
        <ele>26.092896</ele>
        <time>2012-05-11T20:00:16Z</time>
      </trkpt>
      <trkpt lat="-16.75979" lon="-150.9877">
        <ele>26.092896</ele>
        <time>2012-05-11T20:00:33Z</time>
      </trkpt>
      <trkpt lat="-16.76066" lon="-150.98823">
        <ele>27.534912</ele>
        <time>2012-05-11T20:00:53Z</time>
      </trkpt>
      <trkpt lat="-16.76119" lon="-150.98863">
        <ele>24.651001</ele>
        <time>2012-05-11T20:01:06Z</time>
      </trkpt>
      <trkpt lat="-16.76147" lon="-150.98887">
        <ele>25.131714</ele>
        <time>2012-05-11T20:01:13Z</time>
      </trkpt>
      <trkpt lat="-16.76227" lon="-150.98974">
        <ele>23.689575</ele>
        <time>2012-05-11T20:01:35Z</time>
      </trkpt>
      <trkpt lat="-16.7624" lon="-150.98991">
        <ele>23.689575</ele>
        <time>2012-05-11T20:01:39Z</time>
      </trkpt>
      <trkpt lat="-16.76295" lon="-150.99076">
        <ele>25.131714</ele>
        <time>2012-05-11T20:01:58Z</time>
      </trkpt>
      <trkpt lat="-16.76372" lon="-150.9916">
        <ele>25.612305</ele>
        <time>2012-05-11T20:02:20Z</time>
      </trkpt>
      <trkpt lat="-16.76413" lon="-150.99238">
        <ele>24.651001</ele>
        <time>2012-05-11T20:02:37Z</time>
      </trkpt>
      <trkpt lat="-16.76444" lon="-150.99324">
        <ele>24.170288</ele>
        <time>2012-05-11T20:02:54Z</time>
      </trkpt>
      <trkpt lat="-16.76436" lon="-150.99384">
        <ele>24.170288</ele>
        <time>2012-05-11T20:03:08Z</time>
      </trkpt>
      <trkpt lat="-16.76424" lon="-150.99455">
        <ele>24.170288</ele>
        <time>2012-05-11T20:03:24Z</time>
      </trkpt>
      <trkpt lat="-16.76408" lon="-150.99544">
        <ele>23.689575</ele>
        <time>2012-05-11T20:03:42Z</time>
      </trkpt>
      <trkpt lat="-16.76402" lon="-150.99579">
        <ele>25.131714</ele>
        <time>2012-05-11T20:03:49Z</time>
      </trkpt>
      <trkpt lat="-16.76387" lon="-150.99623">
        <ele>23.689575</ele>
        <time>2012-05-11T20:04:01Z</time>
      </trkpt>
      <trkpt lat="-16.76384" lon="-150.99652">
        <ele>23.689575</ele>
        <time>2012-05-11T20:04:12Z</time>
      </trkpt>
      <trkpt lat="-16.76398" lon="-150.99676">
        <ele>23.208984</ele>
        <time>2012-05-11T20:04:26Z</time>
      </trkpt>
      <trkpt lat="-16.76401" lon="-150.99678">
        <ele>23.689575</ele>
        <time>2012-05-11T20:04:37Z</time>
      </trkpt>
      <trkpt lat="-16.76406" lon="-150.99679">
        <ele>21.286377</ele>
        <time>2012-05-11T20:04:48Z</time>
      </trkpt>
      <trkpt lat="-16.76406" lon="-150.99679">
        <ele>25.131714</ele>
        <time>2012-05-11T20:04:50Z</time>
      </trkpt>
      <trkpt lat="-16.76403" lon="-150.99678">
        <ele>21.286377</ele>
        <time>2012-05-11T20:04:58Z</time>
      </trkpt>
      <trkpt lat="-16.76403" lon="-150.99678">
        <ele>21.766968</ele>
        <time>2012-05-11T20:04:59Z</time>
      </trkpt>
      <trkpt lat="-16.76407" lon="-150.99678">
        <ele>22.247559</ele>
        <time>2012-05-11T20:05:13Z</time>
      </trkpt>
      <trkpt lat="-16.76407" lon="-150.99678">
        <ele>23.208984</ele>
        <time>2012-05-11T20:05:29Z</time>
      </trkpt>
      <trkpt lat="-16.76406" lon="-150.99677">
        <ele>23.208984</ele>
        <time>2012-05-11T20:05:30Z</time>
      </trkpt>
      <trkpt lat="-16.76399" lon="-150.99682">
        <ele>19.36377</ele>
        <time>2012-05-11T20:05:43Z</time>
      </trkpt>
      <trkpt lat="-16.764" lon="-150.99682">
        <ele>22.728271</ele>
        <time>2012-05-11T20:05:44Z</time>
      </trkpt>
      <trkpt lat="-16.764" lon="-150.99682">
        <ele>22.728271</ele>
        <time>2012-05-11T20:05:45Z</time>
      </trkpt>
      <trkpt lat="-16.76399" lon="-150.99685">
        <ele>22.728271</ele>
        <time>2012-05-11T20:06:08Z</time>
      </trkpt>
      <trkpt lat="-16.76397" lon="-150.99691">
        <ele>22.728271</ele>
        <time>2012-05-11T20:06:20Z</time>
      </trkpt>
      <trkpt lat="-16.76391" lon="-150.99686">
        <ele>23.208984</ele>
        <time>2012-05-11T20:06:32Z</time>
      </trkpt>
      <trkpt lat="-16.76382" lon="-150.99691">
        <ele>22.247559</ele>
        <time>2012-05-11T20:06:51Z</time>
      </trkpt>
      <trkpt lat="-16.76382" lon="-150.99691">
        <ele>22.728271</ele>
        <time>2012-05-11T20:07:04Z</time>
      </trkpt>
      <trkpt lat="-16.76391" lon="-150.99684">
        <ele>23.208984</ele>
        <time>2012-05-11T20:07:17Z</time>
      </trkpt>
      <trkpt lat="-16.76397" lon="-150.99679">
        <ele>22.247559</ele>
        <time>2012-05-11T20:07:36Z</time>
      </trkpt>
      <trkpt lat="-16.76397" lon="-150.99678">
        <ele>22.247559</ele>
        <time>2012-05-11T20:08:26Z</time>
      </trkpt>
      <trkpt lat="-16.76398" lon="-150.99679">
        <ele>23.689575</ele>
        <time>2012-05-11T20:08:50Z</time>
      </trkpt>
      <trkpt lat="-16.76398" lon="-150.99679">
        <ele>23.689575</ele>
        <time>2012-05-11T20:09:37Z</time>
      </trkpt>
      <trkpt lat="-16.76399" lon="-150.99678">
        <ele>24.170288</ele>
        <time>2012-05-11T20:09:45Z</time>
      </trkpt>
      <trkpt lat="-16.7641" lon="-150.99675">
        <ele>22.247559</ele>
        <time>2012-05-11T20:09:59Z</time>
      </trkpt>
      <trkpt lat="-16.76416" lon="-150.99672">
        <ele>22.247559</ele>
        <time>2012-05-11T20:10:06Z</time>
      </trkpt>
      <trkpt lat="-16.76415" lon="-150.99668">
        <ele>23.689575</ele>
        <time>2012-05-11T20:10:13Z</time>
      </trkpt>
      <trkpt lat="-16.76415" lon="-150.99668">
        <ele>22.728271</ele>
        <time>2012-05-11T20:10:16Z</time>
      </trkpt>
      <trkpt lat="-16.76425" lon="-150.99674">
        <ele>24.170288</ele>
        <time>2012-05-11T20:10:32Z</time>
      </trkpt>
      <trkpt lat="-16.76426" lon="-150.9967">
        <ele>23.208984</ele>
        <time>2012-05-11T20:10:51Z</time>
      </trkpt>
      <trkpt lat="-16.76435" lon="-150.99668">
        <ele>22.728271</ele>
        <time>2012-05-11T20:11:50Z</time>
      </trkpt>
      <trkpt lat="-16.76434" lon="-150.9967">
        <ele>22.247559</ele>
        <time>2012-05-11T20:11:57Z</time>
      </trkpt>
      <trkpt lat="-16.76439" lon="-150.99676">
        <ele>21.766968</ele>
        <time>2012-05-11T20:14:09Z</time>
      </trkpt>
      <trkpt lat="-16.76436" lon="-150.99675">
        <ele>21.286377</ele>
        <time>2012-05-11T20:15:43Z</time>
      </trkpt>
      <trkpt lat="-16.76432" lon="-150.99675">
        <ele>21.766968</ele>
        <time>2012-05-11T20:18:10Z</time>
      </trkpt>
      <trkpt lat="-16.76434" lon="-150.99676">
        <ele>21.766968</ele>
        <time>2012-05-11T20:19:50Z</time>
      </trkpt>
      <trkpt lat="-16.76428" lon="-150.99674">
        <ele>20.805664</ele>
        <time>2012-05-11T20:23:20Z</time>
      </trkpt>
      <trkpt lat="-16.76431" lon="-150.99674">
        <ele>24.170288</ele>
        <time>2012-05-11T20:25:43Z</time>
      </trkpt>
      <trkpt lat="-16.76431" lon="-150.99674">
        <ele>20.805664</ele>
        <time>2012-05-11T20:25:45Z</time>
      </trkpt>
      <trkpt lat="-16.76427" lon="-150.99668">
        <ele>20.805664</ele>
        <time>2012-05-11T20:26:43Z</time>
      </trkpt>
      <trkpt lat="-16.76426" lon="-150.99672">
        <ele>21.766968</ele>
        <time>2012-05-11T20:27:55Z</time>
      </trkpt>
      <trkpt lat="-16.76427" lon="-150.99673">
        <ele>20.324951</ele>
        <time>2012-05-11T20:29:41Z</time>
      </trkpt>
      <trkpt lat="-16.7643" lon="-150.99673">
        <ele>20.324951</ele>
        <time>2012-05-11T20:30:18Z</time>
      </trkpt>
      <trkpt lat="-16.76431" lon="-150.99674">
        <ele>20.324951</ele>
        <time>2012-05-11T20:30:40Z</time>
      </trkpt>
      <trkpt lat="-16.76432" lon="-150.99675">
        <ele>17.441162</ele>
        <time>2012-05-11T20:30:41Z</time>
      </trkpt>
      <trkpt lat="-16.76431" lon="-150.99675">
        <ele>21.766968</ele>
        <time>2012-05-11T20:30:43Z</time>
      </trkpt>
      <trkpt lat="-16.76431" lon="-150.99675">
        <ele>21.766968</ele>
        <time>2012-05-11T20:30:44Z</time>
      </trkpt>
      <trkpt lat="-16.76428" lon="-150.99676">
        <ele>21.766968</ele>
        <time>2012-05-11T20:30:49Z</time>
      </trkpt>
      <trkpt lat="-16.76422" lon="-150.99673">
        <ele>21.766968</ele>
        <time>2012-05-11T20:30:56Z</time>
      </trkpt>
      <trkpt lat="-16.76409" lon="-150.99677">
        <ele>21.766968</ele>
        <time>2012-05-11T20:31:15Z</time>
      </trkpt>
      <trkpt lat="-16.76412" lon="-150.99674">
        <ele>22.247559</ele>
        <time>2012-05-11T20:31:28Z</time>
      </trkpt>
      <trkpt lat="-16.76412" lon="-150.99674">
        <ele>22.728271</ele>
        <time>2012-05-11T20:31:35Z</time>
      </trkpt>
      <trkpt lat="-16.76435" lon="-150.99699">
        <ele>20.805664</ele>
        <time>2012-05-11T20:31:50Z</time>
      </trkpt>
      <trkpt lat="-16.76473" lon="-150.9974">
        <ele>20.805664</ele>
        <time>2012-05-11T20:32:09Z</time>
      </trkpt>
      <trkpt lat="-16.76522" lon="-150.99792">
        <ele>19.84436</ele>
        <time>2012-05-11T20:32:29Z</time>
      </trkpt>
      <trkpt lat="-16.76578" lon="-150.99852">
        <ele>20.805664</ele>
        <time>2012-05-11T20:32:50Z</time>
      </trkpt>
      <trkpt lat="-16.76586" lon="-150.99861">
        <ele>21.286377</ele>
        <time>2012-05-11T20:32:53Z</time>
      </trkpt>
      <trkpt lat="-16.7663" lon="-150.99924">
        <ele>22.247559</ele>
        <time>2012-05-11T20:33:12Z</time>
      </trkpt>
      <trkpt lat="-16.7665" lon="-150.9997">
        <ele>23.208984</ele>
        <time>2012-05-11T20:33:27Z</time>
      </trkpt>
      <trkpt lat="-16.76678" lon="-151.00025">
        <ele>23.208984</ele>
        <time>2012-05-11T20:33:44Z</time>
      </trkpt>
      <trkpt lat="-16.76671" lon="-151.0007">
        <ele>23.208984</ele>
        <time>2012-05-11T20:33:55Z</time>
      </trkpt>
      <trkpt lat="-16.76665" lon="-151.00096">
        <ele>23.689575</ele>
        <time>2012-05-11T20:34:01Z</time>
      </trkpt>
      <trkpt lat="-16.76664" lon="-151.00114">
        <ele>23.689575</ele>
        <time>2012-05-11T20:34:05Z</time>
      </trkpt>
      <trkpt lat="-16.7669" lon="-151.00158">
        <ele>24.170288</ele>
        <time>2012-05-11T20:34:18Z</time>
      </trkpt>
      <trkpt lat="-16.76743" lon="-151.00174">
        <ele>26.573608</ele>
        <time>2012-05-11T20:34:34Z</time>
      </trkpt>
      <trkpt lat="-16.76786" lon="-151.00207">
        <ele>29.93811</ele>
        <time>2012-05-11T20:34:50Z</time>
      </trkpt>
      <trkpt lat="-16.76796" lon="-151.00254">
        <ele>30.418823</ele>
        <time>2012-05-11T20:35:05Z</time>
      </trkpt>
      <trkpt lat="-16.76812" lon="-151.00298">
        <ele>29.45752</ele>
        <time>2012-05-11T20:35:19Z</time>
      </trkpt>
      <trkpt lat="-16.76816" lon="-151.0032">
        <ele>29.45752</ele>
        <time>2012-05-11T20:35:24Z</time>
      </trkpt>
      <trkpt lat="-16.76814" lon="-151.00345">
        <ele>28.976929</ele>
        <time>2012-05-11T20:35:29Z</time>
      </trkpt>
      <trkpt lat="-16.76812" lon="-151.00356">
        <ele>28.496216</ele>
        <time>2012-05-11T20:35:31Z</time>
      </trkpt>
      <trkpt lat="-16.76794" lon="-151.0041">
        <ele>27.054321</ele>
        <time>2012-05-11T20:35:40Z</time>
      </trkpt>
      <trkpt lat="-16.76801" lon="-151.00447">
        <ele>25.612305</ele>
        <time>2012-05-11T20:35:46Z</time>
      </trkpt>
      <trkpt lat="-16.76823" lon="-151.00484">
        <ele>25.612305</ele>
        <time>2012-05-11T20:35:53Z</time>
      </trkpt>
      <trkpt lat="-16.76829" lon="-151.00493">
        <ele>25.131714</ele>
        <time>2012-05-11T20:35:55Z</time>
      </trkpt>
      <trkpt lat="-16.76856" lon="-151.00536">
        <ele>24.651001</ele>
        <time>2012-05-11T20:36:08Z</time>
      </trkpt>
      <trkpt lat="-16.76898" lon="-151.00557">
        <ele>25.131714</ele>
        <time>2012-05-11T20:36:24Z</time>
      </trkpt>
      <trkpt lat="-16.76908" lon="-151.0057">
        <ele>25.612305</ele>
        <time>2012-05-11T20:36:29Z</time>
      </trkpt>
      <trkpt lat="-16.76904" lon="-151.00588">
        <ele>25.131714</ele>
        <time>2012-05-11T20:36:33Z</time>
      </trkpt>
      <trkpt lat="-16.76851" lon="-151.00672">
        <ele>23.208984</ele>
        <time>2012-05-11T20:36:53Z</time>
      </trkpt>
      <trkpt lat="-16.76822" lon="-151.00716">
        <ele>24.170288</ele>
        <time>2012-05-11T20:37:04Z</time>
      </trkpt>
      <trkpt lat="-16.76816" lon="-151.00734">
        <ele>24.651001</ele>
        <time>2012-05-11T20:37:08Z</time>
      </trkpt>
      <trkpt lat="-16.76811" lon="-151.00762">
        <ele>23.689575</ele>
        <time>2012-05-11T20:37:14Z</time>
      </trkpt>
      <trkpt lat="-16.76808" lon="-151.00784">
        <ele>24.170288</ele>
        <time>2012-05-11T20:37:19Z</time>
      </trkpt>
      <trkpt lat="-16.76801" lon="-151.00819">
        <ele>24.651001</ele>
        <time>2012-05-11T20:37:27Z</time>
      </trkpt>
      <trkpt lat="-16.76801" lon="-151.00836">
        <ele>23.689575</ele>
        <time>2012-05-11T20:37:31Z</time>
      </trkpt>
      <trkpt lat="-16.76803" lon="-151.00849">
        <ele>23.689575</ele>
        <time>2012-05-11T20:37:34Z</time>
      </trkpt>
      <trkpt lat="-16.76814" lon="-151.00878">
        <ele>23.208984</ele>
        <time>2012-05-11T20:37:42Z</time>
      </trkpt>
      <trkpt lat="-16.7688" lon="-151.00885">
        <ele>24.170288</ele>
        <time>2012-05-11T20:37:56Z</time>
      </trkpt>
      <trkpt lat="-16.76945" lon="-151.00913">
        <ele>23.689575</ele>
        <time>2012-05-11T20:38:13Z</time>
      </trkpt>
      <trkpt lat="-16.76954" lon="-151.00924">
        <ele>25.131714</ele>
        <time>2012-05-11T20:38:17Z</time>
      </trkpt>
      <trkpt lat="-16.76959" lon="-151.00963">
        <ele>27.054321</ele>
        <time>2012-05-11T20:38:31Z</time>
      </trkpt>
      <trkpt lat="-16.76965" lon="-151.01016">
        <ele>29.93811</ele>
        <time>2012-05-11T20:38:49Z</time>
      </trkpt>
      <trkpt lat="-16.76985" lon="-151.01033">
        <ele>32.822266</ele>
        <time>2012-05-11T20:38:58Z</time>
      </trkpt>
      <trkpt lat="-16.77017" lon="-151.01015">
        <ele>34.744873</ele>
        <time>2012-05-11T20:39:10Z</time>
      </trkpt>
      <trkpt lat="-16.77048" lon="-151.00988">
        <ele>37.148071</ele>
        <time>2012-05-11T20:39:25Z</time>
      </trkpt>
      <trkpt lat="-16.77082" lon="-151.00977">
        <ele>39.070679</ele>
        <time>2012-05-11T20:39:41Z</time>
      </trkpt>
      <trkpt lat="-16.77115" lon="-151.00992">
        <ele>40.993408</ele>
        <time>2012-05-11T20:39:58Z</time>
      </trkpt>
      <trkpt lat="-16.7714" lon="-151.01004">
        <ele>43.877319</ele>
        <time>2012-05-11T20:40:13Z</time>
      </trkpt>
      <trkpt lat="-16.77171" lon="-151.00993">
        <ele>45.319214</ele>
        <time>2012-05-11T20:40:29Z</time>
      </trkpt>
      <trkpt lat="-16.77204" lon="-151.00965">
        <ele>48.203369</ele>
        <time>2012-05-11T20:40:48Z</time>
      </trkpt>
      <trkpt lat="-16.77234" lon="-151.00951">
        <ele>49.164551</ele>
        <time>2012-05-11T20:41:04Z</time>
      </trkpt>
      <trkpt lat="-16.77235" lon="-151.00951">
        <ele>49.164551</ele>
        <time>2012-05-11T20:41:05Z</time>
      </trkpt>
      <trkpt lat="-16.77247" lon="-151.00938">
        <ele>50.125977</ele>
        <time>2012-05-11T20:41:17Z</time>
      </trkpt>
      <trkpt lat="-16.77263" lon="-151.00909">
        <ele>50.125977</ele>
        <time>2012-05-11T20:41:34Z</time>
      </trkpt>
      <trkpt lat="-16.77284" lon="-151.0089">
        <ele>53.971191</ele>
        <time>2012-05-11T20:41:46Z</time>
      </trkpt>
      <trkpt lat="-16.77286" lon="-151.00889">
        <ele>53.971191</ele>
        <time>2012-05-11T20:41:47Z</time>
      </trkpt>
      <trkpt lat="-16.77318" lon="-151.00879">
        <ele>56.855103</ele>
        <time>2012-05-11T20:42:04Z</time>
      </trkpt>
      <trkpt lat="-16.77321" lon="-151.00878">
        <ele>56.855103</ele>
        <time>2012-05-11T20:42:06Z</time>
      </trkpt>
      <trkpt lat="-16.77346" lon="-151.00878">
        <ele>60.219727</ele>
        <time>2012-05-11T20:42:18Z</time>
      </trkpt>
      <trkpt lat="-16.77374" lon="-151.00887">
        <ele>63.584351</ele>
        <time>2012-05-11T20:42:32Z</time>
      </trkpt>
      <trkpt lat="-16.77412" lon="-151.00905">
        <ele>66.948975</ele>
        <time>2012-05-11T20:42:52Z</time>
      </trkpt>
      <trkpt lat="-16.77428" lon="-151.00918">
        <ele>69.352295</ele>
        <time>2012-05-11T20:43:03Z</time>
      </trkpt>
      <trkpt lat="-16.7743" lon="-151.00919">
        <ele>68.871582</ele>
        <time>2012-05-11T20:43:05Z</time>
      </trkpt>
      <trkpt lat="-16.77422" lon="-151.00905">
        <ele>68.390869</ele>
        <time>2012-05-11T20:43:13Z</time>
      </trkpt>
      <trkpt lat="-16.77402" lon="-151.00898">
        <ele>65.50708</ele>
        <time>2012-05-11T20:43:28Z</time>
      </trkpt>
      <trkpt lat="-16.77421" lon="-151.00908">
        <ele>67.429688</ele>
        <time>2012-05-11T20:43:42Z</time>
      </trkpt>
      <trkpt lat="-16.77438" lon="-151.00931">
        <ele>70.313477</ele>
        <time>2012-05-11T20:44:00Z</time>
      </trkpt>
      <trkpt lat="-16.77452" lon="-151.00945">
        <ele>73.197632</ele>
        <time>2012-05-11T20:44:12Z</time>
      </trkpt>
      <trkpt lat="-16.77453" lon="-151.00946">
        <ele>73.197632</ele>
        <time>2012-05-11T20:44:13Z</time>
      </trkpt>
      <trkpt lat="-16.77457" lon="-151.00947">
        <ele>73.678223</ele>
        <time>2012-05-11T20:44:15Z</time>
      </trkpt>
      <trkpt lat="-16.77474" lon="-151.00971">
        <ele>74.158813</ele>
        <time>2012-05-11T20:44:33Z</time>
      </trkpt>
      <trkpt lat="-16.77466" lon="-151.01004">
        <ele>75.60083</ele>
        <time>2012-05-11T20:44:46Z</time>
      </trkpt>
      <trkpt lat="-16.77458" lon="-151.01057">
        <ele>77.523438</ele>
        <time>2012-05-11T20:45:03Z</time>
      </trkpt>
      <trkpt lat="-16.77491" lon="-151.01094">
        <ele>78.004028</ele>
        <time>2012-05-11T20:45:18Z</time>
      </trkpt>
      <trkpt lat="-16.77549" lon="-151.01115">
        <ele>80.407471</ele>
        <time>2012-05-11T20:45:37Z</time>
      </trkpt>
      <trkpt lat="-16.77588" lon="-151.01144">
        <ele>80.888184</ele>
        <time>2012-05-11T20:45:52Z</time>
      </trkpt>
      <trkpt lat="-16.77593" lon="-151.01148">
        <ele>79.926636</ele>
        <time>2012-05-11T20:46:07Z</time>
      </trkpt>
      <trkpt lat="-16.77593" lon="-151.01148">
        <ele>79.926636</ele>
        <time>2012-05-11T20:46:08Z</time>
      </trkpt>
      <trkpt lat="-16.77594" lon="-151.01148">
        <ele>80.407471</ele>
        <time>2012-05-11T20:46:09Z</time>
      </trkpt>
      <trkpt lat="-16.77601" lon="-151.0115">
        <ele>80.888184</ele>
        <time>2012-05-11T20:46:13Z</time>
      </trkpt>
      <trkpt lat="-16.77618" lon="-151.01155">
        <ele>80.888184</ele>
        <time>2012-05-11T20:46:18Z</time>
      </trkpt>
      <trkpt lat="-16.7764" lon="-151.0118">
        <ele>80.888184</ele>
        <time>2012-05-11T20:46:25Z</time>
      </trkpt>
      <trkpt lat="-16.77649" lon="-151.0121">
        <ele>80.888184</ele>
        <time>2012-05-11T20:46:32Z</time>
      </trkpt>
      <trkpt lat="-16.77656" lon="-151.01223">
        <ele>80.407471</ele>
        <time>2012-05-11T20:46:35Z</time>
      </trkpt>
      <trkpt lat="-16.7768" lon="-151.01245">
        <ele>81.368774</ele>
        <time>2012-05-11T20:46:42Z</time>
      </trkpt>
      <trkpt lat="-16.77749" lon="-151.01278">
        <ele>77.523438</ele>
        <time>2012-05-11T20:47:00Z</time>
      </trkpt>
      <trkpt lat="-16.7776" lon="-151.01283">
        <ele>77.042847</ele>
        <time>2012-05-11T20:47:02Z</time>
      </trkpt>
      <trkpt lat="-16.77816" lon="-151.01277">
        <ele>75.120239</ele>
        <time>2012-05-11T20:47:10Z</time>
      </trkpt>
      <trkpt lat="-16.77836" lon="-151.01262">
        <ele>72.236206</ele>
        <time>2012-05-11T20:47:13Z</time>
      </trkpt>
      <trkpt lat="-16.7785" lon="-151.01255">
        <ele>69.832886</ele>
        <time>2012-05-11T20:47:15Z</time>
      </trkpt>
      <trkpt lat="-16.77864" lon="-151.0125">
        <ele>68.871582</ele>
        <time>2012-05-11T20:47:17Z</time>
      </trkpt>
      <trkpt lat="-16.77891" lon="-151.01257">
        <ele>67.429688</ele>
        <time>2012-05-11T20:47:21Z</time>
      </trkpt>
      <trkpt lat="-16.77902" lon="-151.01268">
        <ele>67.429688</ele>
        <time>2012-05-11T20:47:23Z</time>
      </trkpt>
      <trkpt lat="-16.77935" lon="-151.01304">
        <ele>64.065063</ele>
        <time>2012-05-11T20:47:29Z</time>
      </trkpt>
      <trkpt lat="-16.77962" lon="-151.0133">
        <ele>62.622925</ele>
        <time>2012-05-11T20:47:34Z</time>
      </trkpt>
      <trkpt lat="-16.78018" lon="-151.01335">
        <ele>59.739136</ele>
        <time>2012-05-11T20:47:42Z</time>
      </trkpt>
      <trkpt lat="-16.7803" lon="-151.01323">
        <ele>59.258423</ele>
        <time>2012-05-11T20:47:44Z</time>
      </trkpt>
      <trkpt lat="-16.78047" lon="-151.01304">
        <ele>58.77771</ele>
        <time>2012-05-11T20:47:47Z</time>
      </trkpt>
      <trkpt lat="-16.78099" lon="-151.01291">
        <ele>56.855103</ele>
        <time>2012-05-11T20:47:54Z</time>
      </trkpt>
      <trkpt lat="-16.78113" lon="-151.01298">
        <ele>55.893799</ele>
        <time>2012-05-11T20:47:56Z</time>
      </trkpt>
      <trkpt lat="-16.78167" lon="-151.01328">
        <ele>53.009766</ele>
        <time>2012-05-11T20:48:04Z</time>
      </trkpt>
      <trkpt lat="-16.78173" lon="-151.01331">
        <ele>53.490479</ele>
        <time>2012-05-11T20:48:05Z</time>
      </trkpt>
      <trkpt lat="-16.78242" lon="-151.01365">
        <ele>52.048584</ele>
        <time>2012-05-11T20:48:17Z</time>
      </trkpt>
      <trkpt lat="-16.78248" lon="-151.01369">
        <ele>51.567871</ele>
        <time>2012-05-11T20:48:26Z</time>
      </trkpt>
      <trkpt lat="-16.78244" lon="-151.01373">
        <ele>51.567871</ele>
        <time>2012-05-11T20:49:27Z</time>
      </trkpt>
      <trkpt lat="-16.78244" lon="-151.01371">
        <ele>51.567871</ele>
        <time>2012-05-11T20:50:07Z</time>
      </trkpt>
      <trkpt lat="-16.78244" lon="-151.01371">
        <ele>51.087158</ele>
        <time>2012-05-11T20:50:08Z</time>
      </trkpt>
      <trkpt lat="-16.78245" lon="-151.01369">
        <ele>51.567871</ele>
        <time>2012-05-11T20:50:10Z</time>
      </trkpt>
      <trkpt lat="-16.7827" lon="-151.01372">
        <ele>51.087158</ele>
        <time>2012-05-11T20:50:19Z</time>
      </trkpt>
      <trkpt lat="-16.78345" lon="-151.01365">
        <ele>51.087158</ele>
        <time>2012-05-11T20:50:40Z</time>
      </trkpt>
      <trkpt lat="-16.78379" lon="-151.01352">
        <ele>50.125977</ele>
        <time>2012-05-11T20:50:48Z</time>
      </trkpt>
      <trkpt lat="-16.78427" lon="-151.01341">
        <ele>47.722534</ele>
        <time>2012-05-11T20:51:01Z</time>
      </trkpt>
      <trkpt lat="-16.78457" lon="-151.01328">
        <ele>44.358032</ele>
        <time>2012-05-11T20:51:15Z</time>
      </trkpt>
      <trkpt lat="-16.78488" lon="-151.01299">
        <ele>42.435425</ele>
        <time>2012-05-11T20:51:28Z</time>
      </trkpt>
      <trkpt lat="-16.78519" lon="-151.01256">
        <ele>39.55127</ele>
        <time>2012-05-11T20:51:41Z</time>
      </trkpt>
      <trkpt lat="-16.78537" lon="-151.01233">
        <ele>38.109375</ele>
        <time>2012-05-11T20:51:49Z</time>
      </trkpt>
      <trkpt lat="-16.78542" lon="-151.01194">
        <ele>36.66748</ele>
        <time>2012-05-11T20:52:00Z</time>
      </trkpt>
      <trkpt lat="-16.78513" lon="-151.01181">
        <ele>36.66748</ele>
        <time>2012-05-11T20:52:07Z</time>
      </trkpt>
      <trkpt lat="-16.785" lon="-151.01184">
        <ele>36.186768</ele>
        <time>2012-05-11T20:52:10Z</time>
      </trkpt>
      <trkpt lat="-16.78479" lon="-151.01195">
        <ele>35.706055</ele>
        <time>2012-05-11T20:52:15Z</time>
      </trkpt>
      <trkpt lat="-16.78469" lon="-151.01205">
        <ele>33.783447</ele>
        <time>2012-05-11T20:52:18Z</time>
      </trkpt>
      <trkpt lat="-16.78458" lon="-151.01225">
        <ele>31.860718</ele>
        <time>2012-05-11T20:52:22Z</time>
      </trkpt>
      <trkpt lat="-16.78451" lon="-151.0124">
        <ele>30.418823</ele>
        <time>2012-05-11T20:52:25Z</time>
      </trkpt>
      <trkpt lat="-16.78432" lon="-151.01262">
        <ele>27.054321</ele>
        <time>2012-05-11T20:52:30Z</time>
      </trkpt>
      <trkpt lat="-16.78427" lon="-151.01265">
        <ele>27.054321</ele>
        <time>2012-05-11T20:52:31Z</time>
      </trkpt>
      <trkpt lat="-16.78392" lon="-151.01271">
        <ele>25.131714</ele>
        <time>2012-05-11T20:52:37Z</time>
      </trkpt>
      <trkpt lat="-16.78289" lon="-151.01254">
        <ele>23.689575</ele>
        <time>2012-05-11T20:52:55Z</time>
      </trkpt>
      <trkpt lat="-16.78287" lon="-151.01253">
        <ele>23.689575</ele>
        <time>2012-05-11T20:53:05Z</time>
      </trkpt>
      <trkpt lat="-16.78279" lon="-151.01253">
        <ele>23.208984</ele>
        <time>2012-05-11T20:53:12Z</time>
      </trkpt>
      <trkpt lat="-16.78237" lon="-151.01246">
        <ele>23.689575</ele>
        <time>2012-05-11T20:53:22Z</time>
      </trkpt>
      <trkpt lat="-16.78167" lon="-151.0124">
        <ele>25.612305</ele>
        <time>2012-05-11T20:53:37Z</time>
      </trkpt>
      <trkpt lat="-16.78109" lon="-151.01203">
        <ele>26.092896</ele>
        <time>2012-05-11T20:53:51Z</time>
      </trkpt>
      <trkpt lat="-16.78101" lon="-151.01198">
        <ele>26.092896</ele>
        <time>2012-05-11T20:53:53Z</time>
      </trkpt>
      <trkpt lat="-16.78043" lon="-151.01161">
        <ele>26.092896</ele>
        <time>2012-05-11T20:54:09Z</time>
      </trkpt>
      <trkpt lat="-16.78029" lon="-151.01143">
        <ele>26.092896</ele>
        <time>2012-05-11T20:54:13Z</time>
      </trkpt>
      <trkpt lat="-16.77981" lon="-151.01072">
        <ele>24.651001</ele>
        <time>2012-05-11T20:54:27Z</time>
      </trkpt>
      <trkpt lat="-16.77957" lon="-151.0105">
        <ele>26.092896</ele>
        <time>2012-05-11T20:54:33Z</time>
      </trkpt>
      <trkpt lat="-16.77939" lon="-151.01042">
        <ele>26.092896</ele>
        <time>2012-05-11T20:54:37Z</time>
      </trkpt>
      <trkpt lat="-16.77909" lon="-151.01038">
        <ele>26.092896</ele>
        <time>2012-05-11T20:54:43Z</time>
      </trkpt>
      <trkpt lat="-16.77872" lon="-151.01002">
        <ele>25.612305</ele>
        <time>2012-05-11T20:54:53Z</time>
      </trkpt>
      <trkpt lat="-16.77872" lon="-151.0097">
        <ele>27.054321</ele>
        <time>2012-05-11T20:54:59Z</time>
      </trkpt>
      <trkpt lat="-16.77896" lon="-151.00881">
        <ele>28.015503</ele>
        <time>2012-05-11T20:55:17Z</time>
      </trkpt>
      <trkpt lat="-16.77898" lon="-151.00834">
        <ele>26.092896</ele>
        <time>2012-05-11T20:55:26Z</time>
      </trkpt>
      <trkpt lat="-16.77909" lon="-151.00808">
        <ele>26.092896</ele>
        <time>2012-05-11T20:55:31Z</time>
      </trkpt>
      <trkpt lat="-16.7793" lon="-151.0079">
        <ele>26.092896</ele>
        <time>2012-05-11T20:55:36Z</time>
      </trkpt>
      <trkpt lat="-16.77972" lon="-151.00747">
        <ele>26.573608</ele>
        <time>2012-05-11T20:55:50Z</time>
      </trkpt>
      <trkpt lat="-16.77987" lon="-151.00678">
        <ele>25.612305</ele>
        <time>2012-05-11T20:56:04Z</time>
      </trkpt>
      <trkpt lat="-16.78004" lon="-151.00585">
        <ele>26.573608</ele>
        <time>2012-05-11T20:56:21Z</time>
      </trkpt>
      <trkpt lat="-16.78025" lon="-151.00534">
        <ele>29.45752</ele>
        <time>2012-05-11T20:56:33Z</time>
      </trkpt>
      <trkpt lat="-16.78057" lon="-151.00494">
        <ele>31.380127</ele>
        <time>2012-05-11T20:56:47Z</time>
      </trkpt>
      <trkpt lat="-16.78092" lon="-151.00468">
        <ele>32.822266</ele>
        <time>2012-05-11T20:57:01Z</time>
      </trkpt>
      <trkpt lat="-16.78126" lon="-151.00428">
        <ele>33.302856</ele>
        <time>2012-05-11T20:57:18Z</time>
      </trkpt>
      <trkpt lat="-16.78168" lon="-151.00372">
        <ele>31.380127</ele>
        <time>2012-05-11T20:57:33Z</time>
      </trkpt>
      <trkpt lat="-16.78218" lon="-151.00315">
        <ele>30.899536</ele>
        <time>2012-05-11T20:57:47Z</time>
      </trkpt>
      <trkpt lat="-16.78245" lon="-151.00298">
        <ele>31.380127</ele>
        <time>2012-05-11T20:57:53Z</time>
      </trkpt>
      <trkpt lat="-16.78263" lon="-151.00289">
        <ele>31.380127</ele>
        <time>2012-05-11T20:57:57Z</time>
      </trkpt>
      <trkpt lat="-16.78286" lon="-151.00238">
        <ele>30.899536</ele>
        <time>2012-05-11T20:58:08Z</time>
      </trkpt>
      <trkpt lat="-16.78285" lon="-151.00227">
        <ele>30.899536</ele>
        <time>2012-05-11T20:58:10Z</time>
      </trkpt>
      <trkpt lat="-16.78279" lon="-151.00199">
        <ele>30.418823</ele>
        <time>2012-05-11T20:58:15Z</time>
      </trkpt>
      <trkpt lat="-16.78292" lon="-151.00161">
        <ele>29.45752</ele>
        <time>2012-05-11T20:58:22Z</time>
      </trkpt>
      <trkpt lat="-16.78382" lon="-151.00119">
        <ele>27.534912</ele>
        <time>2012-05-11T20:58:38Z</time>
      </trkpt>
      <trkpt lat="-16.78508" lon="-151.00104">
        <ele>25.131714</ele>
        <time>2012-05-11T20:58:57Z</time>
      </trkpt>
      <trkpt lat="-16.78562" lon="-151.00108">
        <ele>25.131714</ele>
        <time>2012-05-11T20:59:06Z</time>
      </trkpt>
      <trkpt lat="-16.78594" lon="-151.00098">
        <ele>25.131714</ele>
        <time>2012-05-11T20:59:12Z</time>
      </trkpt>
      <trkpt lat="-16.78653" lon="-151.00035">
        <ele>26.092896</ele>
        <time>2012-05-11T20:59:27Z</time>
      </trkpt>
      <trkpt lat="-16.78712" lon="-150.99974">
        <ele>28.015503</ele>
        <time>2012-05-11T20:59:45Z</time>
      </trkpt>
      <trkpt lat="-16.78767" lon="-150.99953">
        <ele>30.418823</ele>
        <time>2012-05-11T21:00:01Z</time>
      </trkpt>
      <trkpt lat="-16.78779" lon="-150.99956">
        <ele>30.418823</ele>
        <time>2012-05-11T21:00:04Z</time>
      </trkpt>
      <trkpt lat="-16.78844" lon="-151">
        <ele>28.015503</ele>
        <time>2012-05-11T21:00:19Z</time>
      </trkpt>
      <trkpt lat="-16.78938" lon="-151.0005">
        <ele>26.573608</ele>
        <time>2012-05-11T21:00:38Z</time>
      </trkpt>
      <trkpt lat="-16.78982" lon="-151.00075">
        <ele>27.534912</ele>
        <time>2012-05-11T21:00:48Z</time>
      </trkpt>
      <trkpt lat="-16.78997" lon="-151.00097">
        <ele>28.015503</ele>
        <time>2012-05-11T21:00:54Z</time>
      </trkpt>
      <trkpt lat="-16.79028" lon="-151.00168">
        <ele>26.573608</ele>
        <time>2012-05-11T21:01:09Z</time>
      </trkpt>
      <trkpt lat="-16.79048" lon="-151.00254">
        <ele>25.131714</ele>
        <time>2012-05-11T21:01:23Z</time>
      </trkpt>
      <trkpt lat="-16.79102" lon="-151.00316">
        <ele>25.131714</ele>
        <time>2012-05-11T21:01:38Z</time>
      </trkpt>
      <trkpt lat="-16.79111" lon="-151.00322">
        <ele>25.612305</ele>
        <time>2012-05-11T21:01:40Z</time>
      </trkpt>
      <trkpt lat="-16.79194" lon="-151.00351">
        <ele>23.689575</ele>
        <time>2012-05-11T21:01:57Z</time>
      </trkpt>
      <trkpt lat="-16.79266" lon="-151.00383">
        <ele>23.689575</ele>
        <time>2012-05-11T21:02:12Z</time>
      </trkpt>
      <trkpt lat="-16.7932" lon="-151.00403">
        <ele>26.092896</ele>
        <time>2012-05-11T21:02:25Z</time>
      </trkpt>
      <trkpt lat="-16.79361" lon="-151.00432">
        <ele>28.976929</ele>
        <time>2012-05-11T21:02:41Z</time>
      </trkpt>
      <trkpt lat="-16.79401" lon="-151.0046">
        <ele>27.534912</ele>
        <time>2012-05-11T21:02:57Z</time>
      </trkpt>
      <trkpt lat="-16.79417" lon="-151.00477">
        <ele>25.612305</ele>
        <time>2012-05-11T21:03:01Z</time>
      </trkpt>
      <trkpt lat="-16.79425" lon="-151.0049">
        <ele>25.131714</ele>
        <time>2012-05-11T21:03:03Z</time>
      </trkpt>
      <trkpt lat="-16.79437" lon="-151.00519">
        <ele>23.208984</ele>
        <time>2012-05-11T21:03:07Z</time>
      </trkpt>
      <trkpt lat="-16.79444" lon="-151.00543">
        <ele>23.208984</ele>
        <time>2012-05-11T21:03:10Z</time>
      </trkpt>
      <trkpt lat="-16.79489" lon="-151.00604">
        <ele>22.728271</ele>
        <time>2012-05-11T21:03:22Z</time>
      </trkpt>
      <trkpt lat="-16.79536" lon="-151.00661">
        <ele>21.766968</ele>
        <time>2012-05-11T21:03:36Z</time>
      </trkpt>
      <trkpt lat="-16.7956" lon="-151.00741">
        <ele>21.766968</ele>
        <time>2012-05-11T21:03:51Z</time>
      </trkpt>
      <trkpt lat="-16.79571" lon="-151.00775">
        <ele>21.286377</ele>
        <time>2012-05-11T21:03:58Z</time>
      </trkpt>
      <trkpt lat="-16.79622" lon="-151.00865">
        <ele>21.766968</ele>
        <time>2012-05-11T21:04:17Z</time>
      </trkpt>
      <trkpt lat="-16.79644" lon="-151.00957">
        <ele>21.766968</ele>
        <time>2012-05-11T21:04:34Z</time>
      </trkpt>
      <trkpt lat="-16.79686" lon="-151.0103">
        <ele>22.247559</ele>
        <time>2012-05-11T21:04:49Z</time>
      </trkpt>
      <trkpt lat="-16.79688" lon="-151.01035">
        <ele>21.286377</ele>
        <time>2012-05-11T21:04:50Z</time>
      </trkpt>
      <trkpt lat="-16.79718" lon="-151.01096">
        <ele>20.324951</ele>
        <time>2012-05-11T21:05:03Z</time>
      </trkpt>
      <trkpt lat="-16.79763" lon="-151.01109">
        <ele>21.766968</ele>
        <time>2012-05-11T21:05:12Z</time>
      </trkpt>
      <trkpt lat="-16.79777" lon="-151.01103">
        <ele>23.689575</ele>
        <time>2012-05-11T21:05:15Z</time>
      </trkpt>
      <trkpt lat="-16.7979" lon="-151.0109">
        <ele>23.208984</ele>
        <time>2012-05-11T21:05:19Z</time>
      </trkpt>
      <trkpt lat="-16.79796" lon="-151.01059">
        <ele>19.84436</ele>
        <time>2012-05-11T21:05:26Z</time>
      </trkpt>
      <trkpt lat="-16.79795" lon="-151.0105">
        <ele>19.36377</ele>
        <time>2012-05-11T21:05:28Z</time>
      </trkpt>
      <trkpt lat="-16.79797" lon="-151.0098">
        <ele>19.84436</ele>
        <time>2012-05-11T21:05:42Z</time>
      </trkpt>
      <trkpt lat="-16.79844" lon="-151.009">
        <ele>20.324951</ele>
        <time>2012-05-11T21:06:00Z</time>
      </trkpt>
      <trkpt lat="-16.79883" lon="-151.00869">
        <ele>20.324951</ele>
        <time>2012-05-11T21:06:10Z</time>
      </trkpt>
      <trkpt lat="-16.79935" lon="-151.00795">
        <ele>20.324951</ele>
        <time>2012-05-11T21:06:29Z</time>
      </trkpt>
      <trkpt lat="-16.79952" lon="-151.00776">
        <ele>19.84436</ele>
        <time>2012-05-11T21:06:35Z</time>
      </trkpt>
      <trkpt lat="-16.80019" lon="-151.00722">
        <ele>20.324951</ele>
        <time>2012-05-11T21:06:53Z</time>
      </trkpt>
      <trkpt lat="-16.80084" lon="-151.00672">
        <ele>19.84436</ele>
        <time>2012-05-11T21:07:12Z</time>
      </trkpt>
      <trkpt lat="-16.80132" lon="-151.00606">
        <ele>19.84436</ele>
        <time>2012-05-11T21:07:30Z</time>
      </trkpt>
      <trkpt lat="-16.80135" lon="-151.00602">
        <ele>18.883057</ele>
        <time>2012-05-11T21:07:31Z</time>
      </trkpt>
      <trkpt lat="-16.80176" lon="-151.00554">
        <ele>20.324951</ele>
        <time>2012-05-11T21:07:44Z</time>
      </trkpt>
      <trkpt lat="-16.80241" lon="-151.00499">
        <ele>20.324951</ele>
        <time>2012-05-11T21:08:01Z</time>
      </trkpt>
      <trkpt lat="-16.80315" lon="-151.00452">
        <ele>20.324951</ele>
        <time>2012-05-11T21:08:19Z</time>
      </trkpt>
      <trkpt lat="-16.80389" lon="-151.00418">
        <ele>20.805664</ele>
        <time>2012-05-11T21:08:37Z</time>
      </trkpt>
      <trkpt lat="-16.80427" lon="-151.00415">
        <ele>20.324951</ele>
        <time>2012-05-11T21:08:46Z</time>
      </trkpt>
      <trkpt lat="-16.8044" lon="-151.00413">
        <ele>21.766968</ele>
        <time>2012-05-11T21:08:49Z</time>
      </trkpt>
      <trkpt lat="-16.80453" lon="-151.00407">
        <ele>21.286377</ele>
        <time>2012-05-11T21:08:52Z</time>
      </trkpt>
      <trkpt lat="-16.80488" lon="-151.00377">
        <ele>20.805664</ele>
        <time>2012-05-11T21:09:02Z</time>
      </trkpt>
      <trkpt lat="-16.80496" lon="-151.00356">
        <ele>20.805664</ele>
        <time>2012-05-11T21:09:07Z</time>
      </trkpt>
      <trkpt lat="-16.80498" lon="-151.00308">
        <ele>19.84436</ele>
        <time>2012-05-11T21:09:18Z</time>
      </trkpt>
      <trkpt lat="-16.80535" lon="-151.00247">
        <ele>19.84436</ele>
        <time>2012-05-11T21:09:33Z</time>
      </trkpt>
      <trkpt lat="-16.80558" lon="-151.00215">
        <ele>20.324951</ele>
        <time>2012-05-11T21:09:41Z</time>
      </trkpt>
      <trkpt lat="-16.80565" lon="-151.00202">
        <ele>20.324951</ele>
        <time>2012-05-11T21:09:44Z</time>
      </trkpt>
      <trkpt lat="-16.8057" lon="-151.00182">
        <ele>19.84436</ele>
        <time>2012-05-11T21:09:48Z</time>
      </trkpt>
      <trkpt lat="-16.80565" lon="-151.0009">
        <ele>19.36377</ele>
        <time>2012-05-11T21:10:05Z</time>
      </trkpt>
      <trkpt lat="-16.80602" lon="-151.0005">
        <ele>19.84436</ele>
        <time>2012-05-11T21:10:15Z</time>
      </trkpt>
      <trkpt lat="-16.80606" lon="-151.00048">
        <ele>19.36377</ele>
        <time>2012-05-11T21:10:16Z</time>
      </trkpt>
      <trkpt lat="-16.80704" lon="-151.00042">
        <ele>19.84436</ele>
        <time>2012-05-11T21:10:35Z</time>
      </trkpt>
      <trkpt lat="-16.80778" lon="-151.00064">
        <ele>20.324951</ele>
        <time>2012-05-11T21:10:49Z</time>
      </trkpt>
      <trkpt lat="-16.80853" lon="-151.00111">
        <ele>21.286377</ele>
        <time>2012-05-11T21:11:08Z</time>
      </trkpt>
      <trkpt lat="-16.80867" lon="-151.00115">
        <ele>23.208984</ele>
        <time>2012-05-11T21:11:17Z</time>
      </trkpt>
      <trkpt lat="-16.80869" lon="-151.00115">
        <ele>24.170288</ele>
        <time>2012-05-11T21:11:19Z</time>
      </trkpt>
      <trkpt lat="-16.80874" lon="-151.00115">
        <ele>25.612305</ele>
        <time>2012-05-11T21:11:23Z</time>
      </trkpt>
      <trkpt lat="-16.80898" lon="-151.00103">
        <ele>24.170288</ele>
        <time>2012-05-11T21:11:32Z</time>
      </trkpt>
      <trkpt lat="-16.80916" lon="-151.00076">
        <ele>22.247559</ele>
        <time>2012-05-11T21:11:37Z</time>
      </trkpt>
      <trkpt lat="-16.80931" lon="-151.00041">
        <ele>23.208984</ele>
        <time>2012-05-11T21:11:43Z</time>
      </trkpt>
      <trkpt lat="-16.80933" lon="-151.00031">
        <ele>21.766968</ele>
        <time>2012-05-11T21:11:45Z</time>
      </trkpt>
      <trkpt lat="-16.80934" lon="-151.00001">
        <ele>21.286377</ele>
        <time>2012-05-11T21:11:52Z</time>
      </trkpt>
      <trkpt lat="-16.809" lon="-150.9993">
        <ele>18.883057</ele>
        <time>2012-05-11T21:12:10Z</time>
      </trkpt>
      <trkpt lat="-16.80842" lon="-150.9987">
        <ele>17.921753</ele>
        <time>2012-05-11T21:12:28Z</time>
      </trkpt>
      <trkpt lat="-16.80823" lon="-150.99847">
        <ele>17.441162</ele>
        <time>2012-05-11T21:12:34Z</time>
      </trkpt>
      <trkpt lat="-16.80795" lon="-150.99762">
        <ele>17.921753</ele>
        <time>2012-05-11T21:12:52Z</time>
      </trkpt>
      <trkpt lat="-16.80793" lon="-150.99753">
        <ele>18.402344</ele>
        <time>2012-05-11T21:12:54Z</time>
      </trkpt>
      <trkpt lat="-16.80785" lon="-150.99676">
        <ele>18.402344</ele>
        <time>2012-05-11T21:13:10Z</time>
      </trkpt>
      <trkpt lat="-16.80812" lon="-150.996">
        <ele>20.324951</ele>
        <time>2012-05-11T21:13:26Z</time>
      </trkpt>
      <trkpt lat="-16.80801" lon="-150.9951">
        <ele>18.883057</ele>
        <time>2012-05-11T21:13:44Z</time>
      </trkpt>
      <trkpt lat="-16.80789" lon="-150.99418">
        <ele>17.921753</ele>
        <time>2012-05-11T21:14:03Z</time>
      </trkpt>
      <trkpt lat="-16.80792" lon="-150.99398">
        <ele>17.921753</ele>
        <time>2012-05-11T21:14:07Z</time>
      </trkpt>
      <trkpt lat="-16.80838" lon="-150.99306">
        <ele>18.883057</ele>
        <time>2012-05-11T21:14:27Z</time>
      </trkpt>
      <trkpt lat="-16.80873" lon="-150.99251">
        <ele>18.883057</ele>
        <time>2012-05-11T21:14:42Z</time>
      </trkpt>
      <trkpt lat="-16.80878" lon="-150.99243">
        <ele>20.324951</ele>
        <time>2012-05-11T21:14:44Z</time>
      </trkpt>
      <trkpt lat="-16.80914" lon="-150.99173">
        <ele>20.805664</ele>
        <time>2012-05-11T21:15:01Z</time>
      </trkpt>
      <trkpt lat="-16.80963" lon="-150.9908">
        <ele>20.324951</ele>
        <time>2012-05-11T21:15:23Z</time>
      </trkpt>
      <trkpt lat="-16.81005" lon="-150.99021">
        <ele>20.805664</ele>
        <time>2012-05-11T21:15:38Z</time>
      </trkpt>
      <trkpt lat="-16.81078" lon="-150.98958">
        <ele>21.286377</ele>
        <time>2012-05-11T21:15:57Z</time>
      </trkpt>
      <trkpt lat="-16.81152" lon="-150.98907">
        <ele>20.805664</ele>
        <time>2012-05-11T21:16:14Z</time>
      </trkpt>
      <trkpt lat="-16.81235" lon="-150.98866">
        <ele>20.805664</ele>
        <time>2012-05-11T21:16:32Z</time>
      </trkpt>
      <trkpt lat="-16.81335" lon="-150.9884">
        <ele>20.324951</ele>
        <time>2012-05-11T21:16:52Z</time>
      </trkpt>
      <trkpt lat="-16.8143" lon="-150.98825">
        <ele>20.324951</ele>
        <time>2012-05-11T21:17:13Z</time>
      </trkpt>
      <trkpt lat="-16.81519" lon="-150.98823">
        <ele>20.805664</ele>
        <time>2012-05-11T21:17:34Z</time>
      </trkpt>
      <trkpt lat="-16.81591" lon="-150.98821">
        <ele>20.324951</ele>
        <time>2012-05-11T21:17:51Z</time>
      </trkpt>
      <trkpt lat="-16.81664" lon="-150.98808">
        <ele>19.36377</ele>
        <time>2012-05-11T21:18:08Z</time>
      </trkpt>
      <trkpt lat="-16.81747" lon="-150.9877">
        <ele>19.36377</ele>
        <time>2012-05-11T21:18:29Z</time>
      </trkpt>
      <trkpt lat="-16.81813" lon="-150.98717">
        <ele>19.36377</ele>
        <time>2012-05-11T21:18:48Z</time>
      </trkpt>
      <trkpt lat="-16.81853" lon="-150.98657">
        <ele>19.36377</ele>
        <time>2012-05-11T21:19:05Z</time>
      </trkpt>
      <trkpt lat="-16.81863" lon="-150.98634">
        <ele>19.84436</ele>
        <time>2012-05-11T21:19:11Z</time>
      </trkpt>
      <trkpt lat="-16.81879" lon="-150.98533">
        <ele>18.883057</ele>
        <time>2012-05-11T21:19:36Z</time>
      </trkpt>
      <trkpt lat="-16.8189" lon="-150.98454">
        <ele>18.402344</ele>
        <time>2012-05-11T21:19:57Z</time>
      </trkpt>
      <trkpt lat="-16.8189" lon="-150.98373">
        <ele>18.402344</ele>
        <time>2012-05-11T21:20:17Z</time>
      </trkpt>
      <trkpt lat="-16.81847" lon="-150.98341">
        <ele>17.921753</ele>
        <time>2012-05-11T21:20:30Z</time>
      </trkpt>
      <trkpt lat="-16.81744" lon="-150.98312">
        <ele>17.441162</ele>
        <time>2012-05-11T21:20:52Z</time>
      </trkpt>
      <trkpt lat="-16.81724" lon="-150.98309">
        <ele>17.441162</ele>
        <time>2012-05-11T21:20:56Z</time>
      </trkpt>
      <trkpt lat="-16.81689" lon="-150.98304">
        <ele>16.479736</ele>
        <time>2012-05-11T21:21:03Z</time>
      </trkpt>
      <trkpt lat="-16.81618" lon="-150.98298">
        <ele>18.402344</ele>
        <time>2012-05-11T21:21:16Z</time>
      </trkpt>
      <trkpt lat="-16.81501" lon="-150.98317">
        <ele>15.999023</ele>
        <time>2012-05-11T21:21:38Z</time>
      </trkpt>
      <trkpt lat="-16.81366" lon="-150.9834">
        <ele>15.999023</ele>
        <time>2012-05-11T21:22:02Z</time>
      </trkpt>
      <trkpt lat="-16.81349" lon="-150.98343">
        <ele>17.441162</ele>
        <time>2012-05-11T21:22:05Z</time>
      </trkpt>
      <trkpt lat="-16.81229" lon="-150.98362">
        <ele>15.999023</ele>
        <time>2012-05-11T21:22:27Z</time>
      </trkpt>
      <trkpt lat="-16.8114" lon="-150.98364">
        <ele>15.999023</ele>
        <time>2012-05-11T21:22:43Z</time>
      </trkpt>
      <trkpt lat="-16.81028" lon="-150.98338">
        <ele>17.441162</ele>
        <time>2012-05-11T21:23:03Z</time>
      </trkpt>
      <trkpt lat="-16.8092" lon="-150.98294">
        <ele>17.921753</ele>
        <time>2012-05-11T21:23:25Z</time>
      </trkpt>
      <trkpt lat="-16.80915" lon="-150.98291">
        <ele>18.883057</ele>
        <time>2012-05-11T21:23:26Z</time>
      </trkpt>
      <trkpt lat="-16.80893" lon="-150.98255">
        <ele>17.921753</ele>
        <time>2012-05-11T21:23:34Z</time>
      </trkpt>
      <trkpt lat="-16.80887" lon="-150.98169">
        <ele>18.402344</ele>
        <time>2012-05-11T21:23:51Z</time>
      </trkpt>
      <trkpt lat="-16.80887" lon="-150.9815">
        <ele>17.441162</ele>
        <time>2012-05-11T21:23:55Z</time>
      </trkpt>
      <trkpt lat="-16.80885" lon="-150.9806">
        <ele>17.441162</ele>
        <time>2012-05-11T21:24:14Z</time>
      </trkpt>
      <trkpt lat="-16.80877" lon="-150.97979">
        <ele>17.441162</ele>
        <time>2012-05-11T21:24:30Z</time>
      </trkpt>
      <trkpt lat="-16.80832" lon="-150.97901">
        <ele>18.402344</ele>
        <time>2012-05-11T21:24:50Z</time>
      </trkpt>
      <trkpt lat="-16.80772" lon="-150.97841">
        <ele>16.479736</ele>
        <time>2012-05-11T21:25:11Z</time>
      </trkpt>
      <trkpt lat="-16.80723" lon="-150.97777">
        <ele>16.960449</ele>
        <time>2012-05-11T21:25:31Z</time>
      </trkpt>
      <trkpt lat="-16.80701" lon="-150.97733">
        <ele>17.441162</ele>
        <time>2012-05-11T21:25:43Z</time>
      </trkpt>
      <trkpt lat="-16.80651" lon="-150.97642">
        <ele>16.960449</ele>
        <time>2012-05-11T21:26:07Z</time>
      </trkpt>
      <trkpt lat="-16.806" lon="-150.97579">
        <ele>17.441162</ele>
        <time>2012-05-11T21:26:27Z</time>
      </trkpt>
      <trkpt lat="-16.80553" lon="-150.97527">
        <ele>17.441162</ele>
        <time>2012-05-11T21:26:46Z</time>
      </trkpt>
      <trkpt lat="-16.80496" lon="-150.97477">
        <ele>15.518433</ele>
        <time>2012-05-11T21:27:07Z</time>
      </trkpt>
      <trkpt lat="-16.80436" lon="-150.97429">
        <ele>15.999023</ele>
        <time>2012-05-11T21:27:26Z</time>
      </trkpt>
      <trkpt lat="-16.80374" lon="-150.97379">
        <ele>16.479736</ele>
        <time>2012-05-11T21:27:46Z</time>
      </trkpt>
      <trkpt lat="-16.80321" lon="-150.97336">
        <ele>16.479736</ele>
        <time>2012-05-11T21:28:05Z</time>
      </trkpt>
      <trkpt lat="-16.80268" lon="-150.9729">
        <ele>16.479736</ele>
        <time>2012-05-11T21:28:23Z</time>
      </trkpt>
      <trkpt lat="-16.80212" lon="-150.97261">
        <ele>15.999023</ele>
        <time>2012-05-11T21:28:38Z</time>
      </trkpt>
      <trkpt lat="-16.80165" lon="-150.97217">
        <ele>16.479736</ele>
        <time>2012-05-11T21:28:54Z</time>
      </trkpt>
      <trkpt lat="-16.80133" lon="-150.97166">
        <ele>20.324951</ele>
        <time>2012-05-11T21:29:09Z</time>
      </trkpt>
      <trkpt lat="-16.80134" lon="-150.97139">
        <ele>21.286377</ele>
        <time>2012-05-11T21:29:16Z</time>
      </trkpt>
      <trkpt lat="-16.80119" lon="-150.97113">
        <ele>18.402344</ele>
        <time>2012-05-11T21:29:22Z</time>
      </trkpt>
      <trkpt lat="-16.8011" lon="-150.97105">
        <ele>16.960449</ele>
        <time>2012-05-11T21:29:24Z</time>
      </trkpt>
      <trkpt lat="-16.80052" lon="-150.97056">
        <ele>15.03772</ele>
        <time>2012-05-11T21:29:39Z</time>
      </trkpt>
      <trkpt lat="-16.80033" lon="-150.97045">
        <ele>15.518433</ele>
        <time>2012-05-11T21:29:44Z</time>
      </trkpt>
      <trkpt lat="-16.79986" lon="-150.97054">
        <ele>15.518433</ele>
        <time>2012-05-11T21:29:55Z</time>
      </trkpt>
      <trkpt lat="-16.79977" lon="-150.97073">
        <ele>15.518433</ele>
        <time>2012-05-11T21:29:59Z</time>
      </trkpt>
      <trkpt lat="-16.79972" lon="-150.97105">
        <ele>15.518433</ele>
        <time>2012-05-11T21:30:05Z</time>
      </trkpt>
      <trkpt lat="-16.79954" lon="-150.97132">
        <ele>15.999023</ele>
        <time>2012-05-11T21:30:12Z</time>
      </trkpt>
      <trkpt lat="-16.79862" lon="-150.97178">
        <ele>15.999023</ele>
        <time>2012-05-11T21:30:33Z</time>
      </trkpt>
      <trkpt lat="-16.79824" lon="-150.972">
        <ele>15.999023</ele>
        <time>2012-05-11T21:30:42Z</time>
      </trkpt>
      <trkpt lat="-16.79787" lon="-150.97229">
        <ele>16.479736</ele>
        <time>2012-05-11T21:30:51Z</time>
      </trkpt>
      <trkpt lat="-16.79755" lon="-150.973">
        <ele>17.441162</ele>
        <time>2012-05-11T21:31:06Z</time>
      </trkpt>
      <trkpt lat="-16.7971" lon="-150.97386">
        <ele>16.960449</ele>
        <time>2012-05-11T21:31:26Z</time>
      </trkpt>
      <trkpt lat="-16.79668" lon="-150.97478">
        <ele>16.479736</ele>
        <time>2012-05-11T21:31:46Z</time>
      </trkpt>
      <trkpt lat="-16.79657" lon="-150.97496">
        <ele>17.441162</ele>
        <time>2012-05-11T21:31:50Z</time>
      </trkpt>
      <trkpt lat="-16.79616" lon="-150.97538">
        <ele>17.921753</ele>
        <time>2012-05-11T21:32:02Z</time>
      </trkpt>
      <trkpt lat="-16.79605" lon="-150.97554">
        <ele>17.921753</ele>
        <time>2012-05-11T21:32:06Z</time>
      </trkpt>
      <trkpt lat="-16.796" lon="-150.97567">
        <ele>16.960449</ele>
        <time>2012-05-11T21:32:09Z</time>
      </trkpt>
      <trkpt lat="-16.79597" lon="-150.9759">
        <ele>17.921753</ele>
        <time>2012-05-11T21:32:14Z</time>
      </trkpt>
      <trkpt lat="-16.79579" lon="-150.97671">
        <ele>19.36377</ele>
        <time>2012-05-11T21:32:33Z</time>
      </trkpt>
      <trkpt lat="-16.79571" lon="-150.9768">
        <ele>19.36377</ele>
        <time>2012-05-11T21:32:36Z</time>
      </trkpt>
      <trkpt lat="-16.79496" lon="-150.9772">
        <ele>20.805664</ele>
        <time>2012-05-11T21:32:56Z</time>
      </trkpt>
      <trkpt lat="-16.79436" lon="-150.97738">
        <ele>18.402344</ele>
        <time>2012-05-11T21:33:08Z</time>
      </trkpt>
      <trkpt lat="-16.79377" lon="-150.97739">
        <ele>18.402344</ele>
        <time>2012-05-11T21:33:22Z</time>
      </trkpt>
      <trkpt lat="-16.79361" lon="-150.97741">
        <ele>18.402344</ele>
        <time>2012-05-11T21:33:26Z</time>
      </trkpt>
      <trkpt lat="-16.79337" lon="-150.97749">
        <ele>17.921753</ele>
        <time>2012-05-11T21:33:32Z</time>
      </trkpt>
      <trkpt lat="-16.79274" lon="-150.97799">
        <ele>18.402344</ele>
        <time>2012-05-11T21:33:49Z</time>
      </trkpt>
      <trkpt lat="-16.79239" lon="-150.97802">
        <ele>18.402344</ele>
        <time>2012-05-11T21:33:57Z</time>
      </trkpt>
      <trkpt lat="-16.79218" lon="-150.97793">
        <ele>17.921753</ele>
        <time>2012-05-11T21:34:02Z</time>
      </trkpt>
      <trkpt lat="-16.79201" lon="-150.97766">
        <ele>18.883057</ele>
        <time>2012-05-11T21:34:09Z</time>
      </trkpt>
      <trkpt lat="-16.7919" lon="-150.97722">
        <ele>18.883057</ele>
        <time>2012-05-11T21:34:19Z</time>
      </trkpt>
      <trkpt lat="-16.79188" lon="-150.97679">
        <ele>19.36377</ele>
        <time>2012-05-11T21:34:28Z</time>
      </trkpt>
      <trkpt lat="-16.79212" lon="-150.97593">
        <ele>19.84436</ele>
        <time>2012-05-11T21:34:47Z</time>
      </trkpt>
      <trkpt lat="-16.79246" lon="-150.97524">
        <ele>18.402344</ele>
        <time>2012-05-11T21:35:03Z</time>
      </trkpt>
      <trkpt lat="-16.7927" lon="-150.97449">
        <ele>18.883057</ele>
        <time>2012-05-11T21:35:21Z</time>
      </trkpt>
      <trkpt lat="-16.79273" lon="-150.97437">
        <ele>19.36377</ele>
        <time>2012-05-11T21:35:24Z</time>
      </trkpt>
      <trkpt lat="-16.7928" lon="-150.97416">
        <ele>20.324951</ele>
        <time>2012-05-11T21:35:29Z</time>
      </trkpt>
      <trkpt lat="-16.79295" lon="-150.97333">
        <ele>18.883057</ele>
        <time>2012-05-11T21:35:49Z</time>
      </trkpt>
      <trkpt lat="-16.79297" lon="-150.97269">
        <ele>18.402344</ele>
        <time>2012-05-11T21:36:07Z</time>
      </trkpt>
      <trkpt lat="-16.79297" lon="-150.97267">
        <ele>16.960449</ele>
        <time>2012-05-11T21:36:18Z</time>
      </trkpt>
      <trkpt lat="-16.79296" lon="-150.97246">
        <ele>17.921753</ele>
        <time>2012-05-11T21:36:30Z</time>
      </trkpt>
      <trkpt lat="-16.79289" lon="-150.9719">
        <ele>17.921753</ele>
        <time>2012-05-11T21:36:45Z</time>
      </trkpt>
      <trkpt lat="-16.79288" lon="-150.97169">
        <ele>17.921753</ele>
        <time>2012-05-11T21:36:50Z</time>
      </trkpt>
      <trkpt lat="-16.79277" lon="-150.9708">
        <ele>17.921753</ele>
        <time>2012-05-11T21:37:11Z</time>
      </trkpt>
      <trkpt lat="-16.79274" lon="-150.97">
        <ele>17.921753</ele>
        <time>2012-05-11T21:37:29Z</time>
      </trkpt>
      <trkpt lat="-16.79269" lon="-150.96911">
        <ele>18.402344</ele>
        <time>2012-05-11T21:37:49Z</time>
      </trkpt>
      <trkpt lat="-16.79276" lon="-150.96805">
        <ele>18.402344</ele>
        <time>2012-05-11T21:38:12Z</time>
      </trkpt>
      <trkpt lat="-16.79313" lon="-150.96728">
        <ele>19.84436</ele>
        <time>2012-05-11T21:38:30Z</time>
      </trkpt>
      <trkpt lat="-16.79336" lon="-150.96657">
        <ele>20.805664</ele>
        <time>2012-05-11T21:38:47Z</time>
      </trkpt>
      <trkpt lat="-16.79316" lon="-150.96574">
        <ele>19.84436</ele>
        <time>2012-05-11T21:39:07Z</time>
      </trkpt>
      <trkpt lat="-16.79308" lon="-150.96503">
        <ele>20.324951</ele>
        <time>2012-05-11T21:39:25Z</time>
      </trkpt>
      <trkpt lat="-16.79302" lon="-150.96428">
        <ele>20.805664</ele>
        <time>2012-05-11T21:39:44Z</time>
      </trkpt>
      <trkpt lat="-16.79279" lon="-150.96368">
        <ele>20.324951</ele>
        <time>2012-05-11T21:40:01Z</time>
      </trkpt>
      <trkpt lat="-16.79242" lon="-150.96312">
        <ele>18.883057</ele>
        <time>2012-05-11T21:40:20Z</time>
      </trkpt>
      <trkpt lat="-16.79175" lon="-150.96267">
        <ele>16.960449</ele>
        <time>2012-05-11T21:40:40Z</time>
      </trkpt>
      <trkpt lat="-16.79113" lon="-150.9626">
        <ele>17.441162</ele>
        <time>2012-05-11T21:40:55Z</time>
      </trkpt>
      <trkpt lat="-16.79027" lon="-150.96256">
        <ele>16.960449</ele>
        <time>2012-05-11T21:41:14Z</time>
      </trkpt>
      <trkpt lat="-16.78973" lon="-150.96232">
        <ele>17.921753</ele>
        <time>2012-05-11T21:41:27Z</time>
      </trkpt>
      <trkpt lat="-16.78959" lon="-150.96221">
        <ele>18.402344</ele>
        <time>2012-05-11T21:41:31Z</time>
      </trkpt>
      <trkpt lat="-16.78938" lon="-150.96204">
        <ele>18.883057</ele>
        <time>2012-05-11T21:41:37Z</time>
      </trkpt>
      <trkpt lat="-16.7891" lon="-150.96166">
        <ele>21.286377</ele>
        <time>2012-05-11T21:41:51Z</time>
      </trkpt>
      <trkpt lat="-16.78909" lon="-150.96135">
        <ele>24.170288</ele>
        <time>2012-05-11T21:42:02Z</time>
      </trkpt>
      <trkpt lat="-16.78911" lon="-150.96125">
        <ele>26.092896</ele>
        <time>2012-05-11T21:42:06Z</time>
      </trkpt>
      <trkpt lat="-16.78912" lon="-150.96115">
        <ele>27.054321</ele>
        <time>2012-05-11T21:42:13Z</time>
      </trkpt>
      <trkpt lat="-16.78912" lon="-150.96111">
        <ele>28.976929</ele>
        <time>2012-05-11T21:42:17Z</time>
      </trkpt>
      <trkpt lat="-16.78915" lon="-150.96087">
        <ele>31.860718</ele>
        <time>2012-05-11T21:42:36Z</time>
      </trkpt>
      <trkpt lat="-16.78916" lon="-150.96073">
        <ele>34.744873</ele>
        <time>2012-05-11T21:42:45Z</time>
      </trkpt>
      <trkpt lat="-16.78904" lon="-150.96055">
        <ele>38.109375</ele>
        <time>2012-05-11T21:43:01Z</time>
      </trkpt>
      <trkpt lat="-16.78871" lon="-150.96043">
        <ele>40.993408</ele>
        <time>2012-05-11T21:43:28Z</time>
      </trkpt>
      <trkpt lat="-16.78844" lon="-150.96031">
        <ele>40.993408</ele>
        <time>2012-05-11T21:43:50Z</time>
      </trkpt>
      <trkpt lat="-16.78836" lon="-150.96022">
        <ele>41.954712</ele>
        <time>2012-05-11T21:44:08Z</time>
      </trkpt>
      <trkpt lat="-16.78837" lon="-150.96021">
        <ele>40.512817</ele>
        <time>2012-05-11T21:44:22Z</time>
      </trkpt>
    </trkseg>
  </trk>
  <trk>
    <name><![CDATA[ACTIVE LOG 007]]></name>
    <trkseg>
      <trkpt lat="-16.78839" lon="-150.9602">
        <ele>43.396606</ele>
        <time>2012-05-11T21:45:40Z</time>
      </trkpt>
      <trkpt lat="-16.78839" lon="-150.9602">
        <ele>42.435425</ele>
        <time>2012-05-11T21:45:42Z</time>
      </trkpt>
      <trkpt lat="-16.78838" lon="-150.96022">
        <ele>40.993408</ele>
        <time>2012-05-11T21:46:07Z</time>
      </trkpt>
      <trkpt lat="-16.78837" lon="-150.96025">
        <ele>41.473999</ele>
        <time>2012-05-11T21:46:33Z</time>
      </trkpt>
      <trkpt lat="-16.78837" lon="-150.96025">
        <ele>41.954712</ele>
        <time>2012-05-11T21:46:34Z</time>
      </trkpt>
      <trkpt lat="-16.78841" lon="-150.96027">
        <ele>41.473999</ele>
        <time>2012-05-11T21:46:37Z</time>
      </trkpt>
      <trkpt lat="-16.78854" lon="-150.96039">
        <ele>42.435425</ele>
        <time>2012-05-11T21:46:46Z</time>
      </trkpt>
      <trkpt lat="-16.78871" lon="-150.96044">
        <ele>41.473999</ele>
        <time>2012-05-11T21:46:52Z</time>
      </trkpt>
      <trkpt lat="-16.78897" lon="-150.96052">
        <ele>40.032104</ele>
        <time>2012-05-11T21:46:57Z</time>
      </trkpt>
      <trkpt lat="-16.78915" lon="-150.96075">
        <ele>36.186768</ele>
        <time>2012-05-11T21:47:01Z</time>
      </trkpt>
      <trkpt lat="-16.78915" lon="-150.96085">
        <ele>34.744873</ele>
        <time>2012-05-11T21:47:02Z</time>
      </trkpt>
      <trkpt lat="-16.78911" lon="-150.96128">
        <ele>30.418823</ele>
        <time>2012-05-11T21:47:06Z</time>
      </trkpt>
      <trkpt lat="-16.78909" lon="-150.96149">
        <ele>26.573608</ele>
        <time>2012-05-11T21:47:08Z</time>
      </trkpt>
      <trkpt lat="-16.78933" lon="-150.96205">
        <ele>23.689575</ele>
        <time>2012-05-11T21:47:14Z</time>
      </trkpt>
      <trkpt lat="-16.7898" lon="-150.96242">
        <ele>20.805664</ele>
        <time>2012-05-11T21:47:21Z</time>
      </trkpt>
      <trkpt lat="-16.79048" lon="-150.96264">
        <ele>19.36377</ele>
        <time>2012-05-11T21:47:33Z</time>
      </trkpt>
      <trkpt lat="-16.79119" lon="-150.96263">
        <ele>18.402344</ele>
        <time>2012-05-11T21:47:49Z</time>
      </trkpt>
      <trkpt lat="-16.79138" lon="-150.96262">
        <ele>18.402344</ele>
        <time>2012-05-11T21:47:53Z</time>
      </trkpt>
      <trkpt lat="-16.79158" lon="-150.96264">
        <ele>18.402344</ele>
        <time>2012-05-11T21:47:57Z</time>
      </trkpt>
      <trkpt lat="-16.79239" lon="-150.96311">
        <ele>17.921753</ele>
        <time>2012-05-11T21:48:14Z</time>
      </trkpt>
      <trkpt lat="-16.79287" lon="-150.96382">
        <ele>18.402344</ele>
        <time>2012-05-11T21:48:28Z</time>
      </trkpt>
      <trkpt lat="-16.79305" lon="-150.96465">
        <ele>19.36377</ele>
        <time>2012-05-11T21:48:41Z</time>
      </trkpt>
      <trkpt lat="-16.79323" lon="-150.96611">
        <ele>20.324951</ele>
        <time>2012-05-11T21:49:02Z</time>
      </trkpt>
      <trkpt lat="-16.79333" lon="-150.96645">
        <ele>19.84436</ele>
        <time>2012-05-11T21:49:07Z</time>
      </trkpt>
      <trkpt lat="-16.7933" lon="-150.96681">
        <ele>20.324951</ele>
        <time>2012-05-11T21:49:12Z</time>
      </trkpt>
      <trkpt lat="-16.79281" lon="-150.96785">
        <ele>21.766968</ele>
        <time>2012-05-11T21:49:28Z</time>
      </trkpt>
      <trkpt lat="-16.79264" lon="-150.96883">
        <ele>18.883057</ele>
        <time>2012-05-11T21:49:43Z</time>
      </trkpt>
      <trkpt lat="-16.79271" lon="-150.97016">
        <ele>18.883057</ele>
        <time>2012-05-11T21:50:02Z</time>
      </trkpt>
      <trkpt lat="-16.79285" lon="-150.9716">
        <ele>19.36377</ele>
        <time>2012-05-11T21:50:23Z</time>
      </trkpt>
      <trkpt lat="-16.79295" lon="-150.97311">
        <ele>18.883057</ele>
        <time>2012-05-11T21:50:44Z</time>
      </trkpt>
      <trkpt lat="-16.79272" lon="-150.97435">
        <ele>19.36377</ele>
        <time>2012-05-11T21:51:02Z</time>
      </trkpt>
      <trkpt lat="-16.79242" lon="-150.97531">
        <ele>20.805664</ele>
        <time>2012-05-11T21:51:16Z</time>
      </trkpt>
      <trkpt lat="-16.79232" lon="-150.97556">
        <ele>19.36377</ele>
        <time>2012-05-11T21:51:20Z</time>
      </trkpt>
      <trkpt lat="-16.79198" lon="-150.97624">
        <ele>20.324951</ele>
        <time>2012-05-11T21:51:34Z</time>
      </trkpt>
      <trkpt lat="-16.79187" lon="-150.9769">
        <ele>21.286377</ele>
        <time>2012-05-11T21:51:46Z</time>
      </trkpt>
      <trkpt lat="-16.79205" lon="-150.97778">
        <ele>21.286377</ele>
        <time>2012-05-11T21:52:03Z</time>
      </trkpt>
      <trkpt lat="-16.79245" lon="-150.97807">
        <ele>20.324951</ele>
        <time>2012-05-11T21:52:13Z</time>
      </trkpt>
      <trkpt lat="-16.79255" lon="-150.97808">
        <ele>19.36377</ele>
        <time>2012-05-11T21:52:15Z</time>
      </trkpt>
      <trkpt lat="-16.79268" lon="-150.97806">
        <ele>19.36377</ele>
        <time>2012-05-11T21:52:19Z</time>
      </trkpt>
      <trkpt lat="-16.79267" lon="-150.97803">
        <ele>18.883057</ele>
        <time>2012-05-11T21:52:24Z</time>
      </trkpt>
      <trkpt lat="-16.79261" lon="-150.97805">
        <ele>16.960449</ele>
        <time>2012-05-11T21:52:46Z</time>
      </trkpt>
      <trkpt lat="-16.79264" lon="-150.97807">
        <ele>18.883057</ele>
        <time>2012-05-11T21:52:50Z</time>
      </trkpt>
      <trkpt lat="-16.79305" lon="-150.97782">
        <ele>19.36377</ele>
        <time>2012-05-11T21:53:05Z</time>
      </trkpt>
      <trkpt lat="-16.79347" lon="-150.97749">
        <ele>19.84436</ele>
        <time>2012-05-11T21:53:18Z</time>
      </trkpt>
      <trkpt lat="-16.79359" lon="-150.97744">
        <ele>19.84436</ele>
        <time>2012-05-11T21:53:21Z</time>
      </trkpt>
      <trkpt lat="-16.79439" lon="-150.9774">
        <ele>19.84436</ele>
        <time>2012-05-11T21:53:38Z</time>
      </trkpt>
      <trkpt lat="-16.79514" lon="-150.97715">
        <ele>22.247559</ele>
        <time>2012-05-11T21:53:54Z</time>
      </trkpt>
      <trkpt lat="-16.79578" lon="-150.97677">
        <ele>20.324951</ele>
        <time>2012-05-11T21:54:08Z</time>
      </trkpt>
      <trkpt lat="-16.79593" lon="-150.9765">
        <ele>20.324951</ele>
        <time>2012-05-11T21:54:13Z</time>
      </trkpt>
      <trkpt lat="-16.79613" lon="-150.97547">
        <ele>19.36377</ele>
        <time>2012-05-11T21:54:29Z</time>
      </trkpt>
      <trkpt lat="-16.7962" lon="-150.97535">
        <ele>19.84436</ele>
        <time>2012-05-11T21:54:31Z</time>
      </trkpt>
      <trkpt lat="-16.7968" lon="-150.97461">
        <ele>20.324951</ele>
        <time>2012-05-11T21:54:47Z</time>
      </trkpt>
      <trkpt lat="-16.79723" lon="-150.97373">
        <ele>20.324951</ele>
        <time>2012-05-11T21:55:05Z</time>
      </trkpt>
      <trkpt lat="-16.79774" lon="-150.97271">
        <ele>19.84436</ele>
        <time>2012-05-11T21:55:26Z</time>
      </trkpt>
      <trkpt lat="-16.79788" lon="-150.97237">
        <ele>20.324951</ele>
        <time>2012-05-11T21:55:33Z</time>
      </trkpt>
      <trkpt lat="-16.79847" lon="-150.97191">
        <ele>18.883057</ele>
        <time>2012-05-11T21:55:49Z</time>
      </trkpt>
      <trkpt lat="-16.79953" lon="-150.97137">
        <ele>18.883057</ele>
        <time>2012-05-11T21:56:13Z</time>
      </trkpt>
      <trkpt lat="-16.79961" lon="-150.97133">
        <ele>18.883057</ele>
        <time>2012-05-11T21:56:15Z</time>
      </trkpt>
      <trkpt lat="-16.79976" lon="-150.97114">
        <ele>18.402344</ele>
        <time>2012-05-11T21:56:20Z</time>
      </trkpt>
      <trkpt lat="-16.79988" lon="-150.97064">
        <ele>19.36377</ele>
        <time>2012-05-11T21:56:30Z</time>
      </trkpt>
      <trkpt lat="-16.80023" lon="-150.97043">
        <ele>18.402344</ele>
        <time>2012-05-11T21:56:39Z</time>
      </trkpt>
      <trkpt lat="-16.80042" lon="-150.97049">
        <ele>17.921753</ele>
        <time>2012-05-11T21:56:43Z</time>
      </trkpt>
      <trkpt lat="-16.80117" lon="-150.97108">
        <ele>17.921753</ele>
        <time>2012-05-11T21:57:01Z</time>
      </trkpt>
      <trkpt lat="-16.80125" lon="-150.97114">
        <ele>19.84436</ele>
        <time>2012-05-11T21:57:03Z</time>
      </trkpt>
      <trkpt lat="-16.80136" lon="-150.97131">
        <ele>22.247559</ele>
        <time>2012-05-11T21:57:08Z</time>
      </trkpt>
      <trkpt lat="-16.80136" lon="-150.97162">
        <ele>22.728271</ele>
        <time>2012-05-11T21:57:17Z</time>
      </trkpt>
      <trkpt lat="-16.80145" lon="-150.97188">
        <ele>21.286377</ele>
        <time>2012-05-11T21:57:22Z</time>
      </trkpt>
      <trkpt lat="-16.80193" lon="-150.97248">
        <ele>19.84436</ele>
        <time>2012-05-11T21:57:34Z</time>
      </trkpt>
      <trkpt lat="-16.80278" lon="-150.97298">
        <ele>19.36377</ele>
        <time>2012-05-11T21:57:50Z</time>
      </trkpt>
      <trkpt lat="-16.80352" lon="-150.97363">
        <ele>19.84436</ele>
        <time>2012-05-11T21:58:05Z</time>
      </trkpt>
      <trkpt lat="-16.8047" lon="-150.97456">
        <ele>18.883057</ele>
        <time>2012-05-11T21:58:27Z</time>
      </trkpt>
      <trkpt lat="-16.8056" lon="-150.97536">
        <ele>18.402344</ele>
        <time>2012-05-11T21:58:45Z</time>
      </trkpt>
      <trkpt lat="-16.80649" lon="-150.97637">
        <ele>18.883057</ele>
        <time>2012-05-11T21:59:04Z</time>
      </trkpt>
      <trkpt lat="-16.80721" lon="-150.97768">
        <ele>19.36377</ele>
        <time>2012-05-11T21:59:24Z</time>
      </trkpt>
      <trkpt lat="-16.80797" lon="-150.97865">
        <ele>18.883057</ele>
        <time>2012-05-11T21:59:41Z</time>
      </trkpt>
      <trkpt lat="-16.80878" lon="-150.9797">
        <ele>19.84436</ele>
        <time>2012-05-11T21:59:58Z</time>
      </trkpt>
      <trkpt lat="-16.80889" lon="-150.98022">
        <ele>19.84436</ele>
        <time>2012-05-11T22:00:06Z</time>
      </trkpt>
      <trkpt lat="-16.80888" lon="-150.9804">
        <ele>19.84436</ele>
        <time>2012-05-11T22:00:09Z</time>
      </trkpt>
      <trkpt lat="-16.80892" lon="-150.98162">
        <ele>19.84436</ele>
        <time>2012-05-11T22:00:27Z</time>
      </trkpt>
      <trkpt lat="-16.80896" lon="-150.98257">
        <ele>19.84436</ele>
        <time>2012-05-11T22:00:41Z</time>
      </trkpt>
      <trkpt lat="-16.8092" lon="-150.98296">
        <ele>19.84436</ele>
        <time>2012-05-11T22:00:48Z</time>
      </trkpt>
      <trkpt lat="-16.81013" lon="-150.98336">
        <ele>19.84436</ele>
        <time>2012-05-11T22:01:03Z</time>
      </trkpt>
      <trkpt lat="-16.81128" lon="-150.98365">
        <ele>19.84436</ele>
        <time>2012-05-11T22:01:21Z</time>
      </trkpt>
      <trkpt lat="-16.8122" lon="-150.98368">
        <ele>19.84436</ele>
        <time>2012-05-11T22:01:35Z</time>
      </trkpt>
      <trkpt lat="-16.81347" lon="-150.98348">
        <ele>19.36377</ele>
        <time>2012-05-11T22:01:54Z</time>
      </trkpt>
      <trkpt lat="-16.81483" lon="-150.98325">
        <ele>20.324951</ele>
        <time>2012-05-11T22:02:17Z</time>
      </trkpt>
      <trkpt lat="-16.81606" lon="-150.98304">
        <ele>20.324951</ele>
        <time>2012-05-11T22:02:38Z</time>
      </trkpt>
      <trkpt lat="-16.81704" lon="-150.98309">
        <ele>19.36377</ele>
        <time>2012-05-11T22:02:56Z</time>
      </trkpt>
      <trkpt lat="-16.81824" lon="-150.98334">
        <ele>20.324951</ele>
        <time>2012-05-11T22:03:18Z</time>
      </trkpt>
      <trkpt lat="-16.81859" lon="-150.98348">
        <ele>20.324951</ele>
        <time>2012-05-11T22:03:25Z</time>
      </trkpt>
      <trkpt lat="-16.81892" lon="-150.98351">
        <ele>20.805664</ele>
        <time>2012-05-11T22:03:33Z</time>
      </trkpt>
      <trkpt lat="-16.81921" lon="-150.98352">
        <ele>21.286377</ele>
        <time>2012-05-11T22:03:39Z</time>
      </trkpt>
      <trkpt lat="-16.81976" lon="-150.9833">
        <ele>22.247559</ele>
        <time>2012-05-11T22:03:50Z</time>
      </trkpt>
      <trkpt lat="-16.82021" lon="-150.9834">
        <ele>21.286377</ele>
        <time>2012-05-11T22:04:00Z</time>
      </trkpt>
      <trkpt lat="-16.82029" lon="-150.98344">
        <ele>21.766968</ele>
        <time>2012-05-11T22:04:02Z</time>
      </trkpt>
      <trkpt lat="-16.82045" lon="-150.98342">
        <ele>22.247559</ele>
        <time>2012-05-11T22:04:11Z</time>
      </trkpt>
      <trkpt lat="-16.82048" lon="-150.98342">
        <ele>21.286377</ele>
        <time>2012-05-11T22:04:20Z</time>
      </trkpt>
      <trkpt lat="-16.82054" lon="-150.98338">
        <ele>17.441162</ele>
        <time>2012-05-11T22:04:27Z</time>
      </trkpt>
      <trkpt lat="-16.82057" lon="-150.98337">
        <ele>23.208984</ele>
        <time>2012-05-11T22:04:31Z</time>
      </trkpt>
      <trkpt lat="-16.82058" lon="-150.98337">
        <ele>20.805664</ele>
        <time>2012-05-11T22:04:32Z</time>
      </trkpt>
      <trkpt lat="-16.82059" lon="-150.98338">
        <ele>22.247559</ele>
        <time>2012-05-11T22:04:36Z</time>
      </trkpt>
      <trkpt lat="-16.82062" lon="-150.9834">
        <ele>21.286377</ele>
        <time>2012-05-11T22:04:42Z</time>
      </trkpt>
      <trkpt lat="-16.8206" lon="-150.98344">
        <ele>22.247559</ele>
        <time>2012-05-11T22:05:06Z</time>
      </trkpt>
      <trkpt lat="-16.8206" lon="-150.98344">
        <ele>22.247559</ele>
        <time>2012-05-11T22:05:15Z</time>
      </trkpt>
    </trkseg>
  </trk>
</gpx>